<?xml version="1.0" encoding="UTF-8" standalone="no" ?>
<gpx xmlns="http://www.topografix.com/GPX/1/1" xmlns:xsi="http://www.w3.org/2001/XMLSchema-instance" xsi:schemaLocation="http://www.topografix.com/GPX/1/1 http://www.topografix.com/GPX/1/1/gpx.xsd" version="1.1" creator="VisuGPX - https://www.visugpx.com">
  <metadata>
    <name>skirando raid J1 : fouillouse gypiere campobase</name>
    <desc><![CDATA[sur les conseils de guide-05 et du gardien de fouillouse, on part par le col de la gypiere et l'infernetto. très joli, mais très long jusqu'à gypiere (et encore un peu jusqu'à infernetto). très belle cabane de barenghi en particulier.  ensuite ca descend raide 50m, avant d'être de la bonne transfo, puis de la pourrie en bas. ski de fond pour rejoindre le refuge. avec les amis]]></desc>
  </metadata>
  <wpt lat="44.52912" lon="6.86572">
    <ele>2829.3</ele>
    <name><![CDATA[rifugio barrenghi]]></name>
    <cmt><![CDATA[]]></cmt>
  </wpt>
  <wpt lat="44.52524" lon="6.79875">
    <ele>1883.12</ele>
    <name><![CDATA[0000319]]></name>
    <type><![CDATA[Point de départ]]></type>
  </wpt>
  <wpt lat="44.49727" lon="6.91911">
    <ele>1640.74</ele>
    <name><![CDATA[0000320]]></name>
    <desc><![CDATA[<p><br /><h3>Nom: Segment: 1</h3><br />Heure de départ: 04/20/2018 05:08<br/>Heure d'arrivée: 04/20/2018 11:13<br/>Distance: 17,1km (06:04)<br/>Temps déplacement: 03:31<br/>Vitesse moyenne: 2,81 km/h<br/>Vitesse moyenne mouv.: 4,83 km/h<br/>Vitesse Max.: 41,16 km/h<br/>Altitude minimale: 1633 m<br/>Altitude maximale: 2932 m<br/>Vitesse de montée: 300,7 m/h<br/>Vitesse de descente: -769,4 m/h<br/>Gain d'altitude: 1240 m<br/>Perte d'altitude: -1484 m<br/>Temps de montée: 04:07<br/>Temps de descente: 01:55<br/></p>]]></desc>
    <type><![CDATA[Point d'arrivée]]></type>
  </wpt>
  <trk>
    <name><![CDATA[2018-04-20 J1 raid : Fouillouse gipyere Campo base]]></name>
    <trkseg>
      <trkpt lat="44.52524" lon="6.79875">
        <ele>1883.12</ele>
        <time>2018-04-20T03:08:54.000Z</time>
      </trkpt>
      <trkpt lat="44.52529" lon="6.79905">
        <ele>1884.78</ele>
        <time>2018-04-20T03:14:50.000Z</time>
      </trkpt>
      <trkpt lat="44.52534" lon="6.79933">
        <ele>1883.16</ele>
        <time>2018-04-20T03:15:10.000Z</time>
      </trkpt>
      <trkpt lat="44.52538" lon="6.79963">
        <ele>1882.82</ele>
        <time>2018-04-20T03:15:30.000Z</time>
      </trkpt>
      <trkpt lat="44.52544" lon="6.79991">
        <ele>1882.44</ele>
        <time>2018-04-20T03:15:50.000Z</time>
      </trkpt>
      <trkpt lat="44.52549" lon="6.80021">
        <ele>1882.83</ele>
        <time>2018-04-20T03:16:10.000Z</time>
      </trkpt>
      <trkpt lat="44.52549" lon="6.80049">
        <ele>1883.53</ele>
        <time>2018-04-20T03:16:26.000Z</time>
      </trkpt>
      <trkpt lat="44.52551" lon="6.8008">
        <ele>1884.37</ele>
        <time>2018-04-20T03:16:46.000Z</time>
      </trkpt>
      <trkpt lat="44.52551" lon="6.80107">
        <ele>1884.77</ele>
        <time>2018-04-20T03:17:06.000Z</time>
      </trkpt>
      <trkpt lat="44.52557" lon="6.80136">
        <ele>1883.6</ele>
        <time>2018-04-20T03:17:30.000Z</time>
      </trkpt>
      <trkpt lat="44.52562" lon="6.80164">
        <ele>1882.67</ele>
        <time>2018-04-20T03:17:54.000Z</time>
      </trkpt>
      <trkpt lat="44.5257" lon="6.80191">
        <ele>1883.7</ele>
        <time>2018-04-20T03:18:18.000Z</time>
      </trkpt>
      <trkpt lat="44.52576" lon="6.80216">
        <ele>1884.08</ele>
        <time>2018-04-20T03:18:34.000Z</time>
      </trkpt>
      <trkpt lat="44.52584" lon="6.8024">
        <ele>1884.44</ele>
        <time>2018-04-20T03:18:50.000Z</time>
      </trkpt>
      <trkpt lat="44.52592" lon="6.80266">
        <ele>1886.35</ele>
        <time>2018-04-20T03:19:10.000Z</time>
      </trkpt>
      <trkpt lat="44.52599" lon="6.80292">
        <ele>1888.06</ele>
        <time>2018-04-20T03:19:26.000Z</time>
      </trkpt>
      <trkpt lat="44.526" lon="6.80321">
        <ele>1890.15</ele>
        <time>2018-04-20T03:19:46.000Z</time>
      </trkpt>
      <trkpt lat="44.526" lon="6.80348">
        <ele>1891.65</ele>
        <time>2018-04-20T03:20:10.000Z</time>
      </trkpt>
      <trkpt lat="44.52599" lon="6.80379">
        <ele>1890.29</ele>
        <time>2018-04-20T03:20:30.000Z</time>
      </trkpt>
      <trkpt lat="44.52599" lon="6.80409">
        <ele>1888.7</ele>
        <time>2018-04-20T03:20:45.000Z</time>
      </trkpt>
      <trkpt lat="44.52601" lon="6.80435">
        <ele>1889.1</ele>
        <time>2018-04-20T03:21:05.000Z</time>
      </trkpt>
      <trkpt lat="44.52594" lon="6.80465">
        <ele>1889.73</ele>
        <time>2018-04-20T03:21:21.000Z</time>
      </trkpt>
      <trkpt lat="44.52586" lon="6.80489">
        <ele>1892.95</ele>
        <time>2018-04-20T03:21:45.000Z</time>
      </trkpt>
      <trkpt lat="44.52578" lon="6.80515">
        <ele>1896.24</ele>
        <time>2018-04-20T03:22:09.000Z</time>
      </trkpt>
      <trkpt lat="44.52569" lon="6.80539">
        <ele>1898.4</ele>
        <time>2018-04-20T03:22:25.000Z</time>
      </trkpt>
      <trkpt lat="44.52562" lon="6.80566">
        <ele>1900.73</ele>
        <time>2018-04-20T03:22:45.000Z</time>
      </trkpt>
      <trkpt lat="44.5256" lon="6.80596">
        <ele>1902.29</ele>
        <time>2018-04-20T03:23:05.000Z</time>
      </trkpt>
      <trkpt lat="44.52558" lon="6.80624">
        <ele>1903.87</ele>
        <time>2018-04-20T03:23:25.000Z</time>
      </trkpt>
      <trkpt lat="44.52554" lon="6.80654">
        <ele>1904.86</ele>
        <time>2018-04-20T03:23:41.000Z</time>
      </trkpt>
      <trkpt lat="44.52549" lon="6.80681">
        <ele>1905.7</ele>
        <time>2018-04-20T03:23:57.000Z</time>
      </trkpt>
      <trkpt lat="44.5254" lon="6.80709">
        <ele>1906.98</ele>
        <time>2018-04-20T03:24:17.000Z</time>
      </trkpt>
      <trkpt lat="44.5253" lon="6.80731">
        <ele>1908.76</ele>
        <time>2018-04-20T03:25:01.000Z</time>
      </trkpt>
      <trkpt lat="44.52519" lon="6.80752">
        <ele>1912.49</ele>
        <time>2018-04-20T03:30:53.000Z</time>
      </trkpt>
      <trkpt lat="44.52505" lon="6.80773">
        <ele>1912.25</ele>
        <time>2018-04-20T03:31:17.000Z</time>
      </trkpt>
      <trkpt lat="44.52491" lon="6.80791">
        <ele>1910.51</ele>
        <time>2018-04-20T03:31:37.000Z</time>
      </trkpt>
      <trkpt lat="44.52477" lon="6.80807">
        <ele>1908.35</ele>
        <time>2018-04-20T03:32:01.000Z</time>
      </trkpt>
      <trkpt lat="44.52462" lon="6.80826">
        <ele>1906.28</ele>
        <time>2018-04-20T03:32:29.000Z</time>
      </trkpt>
      <trkpt lat="44.52446" lon="6.80842">
        <ele>1903.35</ele>
        <time>2018-04-20T03:32:57.000Z</time>
      </trkpt>
      <trkpt lat="44.52431" lon="6.80859">
        <ele>1900.68</ele>
        <time>2018-04-20T03:33:25.000Z</time>
      </trkpt>
      <trkpt lat="44.52415" lon="6.80879">
        <ele>1898.76</ele>
        <time>2018-04-20T03:33:53.000Z</time>
      </trkpt>
      <trkpt lat="44.52399" lon="6.80899">
        <ele>1899.06</ele>
        <time>2018-04-20T03:34:21.000Z</time>
      </trkpt>
      <trkpt lat="44.52386" lon="6.80923">
        <ele>1902.44</ele>
        <time>2018-04-20T03:34:49.000Z</time>
      </trkpt>
      <trkpt lat="44.52376" lon="6.80944">
        <ele>1905.85</ele>
        <time>2018-04-20T03:35:13.000Z</time>
      </trkpt>
      <trkpt lat="44.52366" lon="6.80966">
        <ele>1908.91</ele>
        <time>2018-04-20T03:35:37.000Z</time>
      </trkpt>
      <trkpt lat="44.52355" lon="6.80987">
        <ele>1913.29</ele>
        <time>2018-04-20T03:36:05.000Z</time>
      </trkpt>
      <trkpt lat="44.5235" lon="6.81012">
        <ele>1917.29</ele>
        <time>2018-04-20T03:36:33.000Z</time>
      </trkpt>
      <trkpt lat="44.5234" lon="6.81039">
        <ele>1923.9</ele>
        <time>2018-04-20T03:37:01.000Z</time>
      </trkpt>
      <trkpt lat="44.52329" lon="6.8106">
        <ele>1932.71</ele>
        <time>2018-04-20T03:37:33.000Z</time>
      </trkpt>
      <trkpt lat="44.52325" lon="6.81087">
        <ele>1937.81</ele>
        <time>2018-04-20T03:38:13.000Z</time>
      </trkpt>
      <trkpt lat="44.52304" lon="6.81109">
        <ele>1938.31</ele>
        <time>2018-04-20T03:38:38.000Z</time>
      </trkpt>
      <trkpt lat="44.52288" lon="6.81126">
        <ele>1941.26</ele>
        <time>2018-04-20T03:39:26.000Z</time>
      </trkpt>
      <trkpt lat="44.52274" lon="6.81148">
        <ele>1948.81</ele>
        <time>2018-04-20T03:40:26.000Z</time>
      </trkpt>
      <trkpt lat="44.52265" lon="6.81171">
        <ele>1966.34</ele>
        <time>2018-04-20T03:43:10.000Z</time>
      </trkpt>
      <trkpt lat="44.52252" lon="6.81189">
        <ele>1977.29</ele>
        <time>2018-04-20T03:44:10.000Z</time>
      </trkpt>
      <trkpt lat="44.52235" lon="6.81205">
        <ele>1982.85</ele>
        <time>2018-04-20T03:45:54.000Z</time>
      </trkpt>
      <trkpt lat="44.52218" lon="6.81222">
        <ele>1986.61</ele>
        <time>2018-04-20T03:46:18.000Z</time>
      </trkpt>
      <trkpt lat="44.52204" lon="6.81242">
        <ele>1990.93</ele>
        <time>2018-04-20T03:46:46.000Z</time>
      </trkpt>
      <trkpt lat="44.5219" lon="6.81266">
        <ele>1995.33</ele>
        <time>2018-04-20T03:47:10.000Z</time>
      </trkpt>
      <trkpt lat="44.52179" lon="6.81288">
        <ele>1997.82</ele>
        <time>2018-04-20T03:47:34.000Z</time>
      </trkpt>
      <trkpt lat="44.52166" lon="6.81306">
        <ele>1999.38</ele>
        <time>2018-04-20T03:47:54.000Z</time>
      </trkpt>
      <trkpt lat="44.52152" lon="6.81324">
        <ele>2000.58</ele>
        <time>2018-04-20T03:48:18.000Z</time>
      </trkpt>
      <trkpt lat="44.52138" lon="6.8134">
        <ele>2002.99</ele>
        <time>2018-04-20T03:48:54.000Z</time>
      </trkpt>
      <trkpt lat="44.52121" lon="6.81358">
        <ele>2004.55</ele>
        <time>2018-04-20T03:49:14.000Z</time>
      </trkpt>
      <trkpt lat="44.52105" lon="6.81372">
        <ele>2005.67</ele>
        <time>2018-04-20T03:49:38.000Z</time>
      </trkpt>
      <trkpt lat="44.52087" lon="6.81382">
        <ele>2007.28</ele>
        <time>2018-04-20T03:49:58.000Z</time>
      </trkpt>
      <trkpt lat="44.5207" lon="6.81393">
        <ele>2010.04</ele>
        <time>2018-04-20T03:50:26.000Z</time>
      </trkpt>
      <trkpt lat="44.52054" lon="6.81411">
        <ele>2009.32</ele>
        <time>2018-04-20T03:50:46.000Z</time>
      </trkpt>
      <trkpt lat="44.5204" lon="6.81427">
        <ele>2005.16</ele>
        <time>2018-04-20T03:51:14.000Z</time>
      </trkpt>
      <trkpt lat="44.52031" lon="6.81451">
        <ele>2003.98</ele>
        <time>2018-04-20T03:51:34.000Z</time>
      </trkpt>
      <trkpt lat="44.52024" lon="6.81475">
        <ele>2005.18</ele>
        <time>2018-04-20T03:51:50.000Z</time>
      </trkpt>
      <trkpt lat="44.52015" lon="6.81502">
        <ele>2008.36</ele>
        <time>2018-04-20T03:52:14.000Z</time>
      </trkpt>
      <trkpt lat="44.51996" lon="6.81516">
        <ele>2009.99</ele>
        <time>2018-04-20T03:52:34.000Z</time>
      </trkpt>
      <trkpt lat="44.51976" lon="6.81514">
        <ele>2015.14</ele>
        <time>2018-04-20T03:53:02.000Z</time>
      </trkpt>
      <trkpt lat="44.51959" lon="6.81525">
        <ele>2019.21</ele>
        <time>2018-04-20T03:53:34.000Z</time>
      </trkpt>
      <trkpt lat="44.51942" lon="6.81543">
        <ele>2023.17</ele>
        <time>2018-04-20T03:54:06.000Z</time>
      </trkpt>
      <trkpt lat="44.51929" lon="6.81565">
        <ele>2026.53</ele>
        <time>2018-04-20T03:54:30.000Z</time>
      </trkpt>
      <trkpt lat="44.51914" lon="6.81582">
        <ele>2029.81</ele>
        <time>2018-04-20T03:54:54.000Z</time>
      </trkpt>
      <trkpt lat="44.51903" lon="6.81602">
        <ele>2034.41</ele>
        <time>2018-04-20T03:55:26.000Z</time>
      </trkpt>
      <trkpt lat="44.51894" lon="6.81626">
        <ele>2038.07</ele>
        <time>2018-04-20T03:56:53.000Z</time>
      </trkpt>
      <trkpt lat="44.51896" lon="6.81654">
        <ele>2045.98</ele>
        <time>2018-04-20T03:57:33.000Z</time>
      </trkpt>
      <trkpt lat="44.51892" lon="6.81679">
        <ele>2051.48</ele>
        <time>2018-04-20T03:58:09.000Z</time>
      </trkpt>
      <trkpt lat="44.519" lon="6.81702">
        <ele>2055.36</ele>
        <time>2018-04-20T03:58:33.000Z</time>
      </trkpt>
      <trkpt lat="44.51901" lon="6.81729">
        <ele>2059.94</ele>
        <time>2018-04-20T03:59:01.000Z</time>
      </trkpt>
      <trkpt lat="44.51883" lon="6.81746">
        <ele>2063.79</ele>
        <time>2018-04-20T03:59:33.000Z</time>
      </trkpt>
      <trkpt lat="44.51865" lon="6.81752">
        <ele>2066.2</ele>
        <time>2018-04-20T04:00:01.000Z</time>
      </trkpt>
      <trkpt lat="44.51846" lon="6.81753">
        <ele>2068.26</ele>
        <time>2018-04-20T04:00:29.000Z</time>
      </trkpt>
      <trkpt lat="44.51833" lon="6.81774">
        <ele>2068.43</ele>
        <time>2018-04-20T04:00:49.000Z</time>
      </trkpt>
      <trkpt lat="44.51819" lon="6.818">
        <ele>2070.32</ele>
        <time>2018-04-20T04:01:21.000Z</time>
      </trkpt>
      <trkpt lat="44.51809" lon="6.81822">
        <ele>2072.97</ele>
        <time>2018-04-20T04:01:45.000Z</time>
      </trkpt>
      <trkpt lat="44.51799" lon="6.81844">
        <ele>2076.85</ele>
        <time>2018-04-20T04:02:09.000Z</time>
      </trkpt>
      <trkpt lat="44.51784" lon="6.81866">
        <ele>2080.77</ele>
        <time>2018-04-20T04:02:37.000Z</time>
      </trkpt>
      <trkpt lat="44.51771" lon="6.81884">
        <ele>2085.38</ele>
        <time>2018-04-20T04:03:09.000Z</time>
      </trkpt>
      <trkpt lat="44.5176" lon="6.81909">
        <ele>2088.59</ele>
        <time>2018-04-20T04:03:37.000Z</time>
      </trkpt>
      <trkpt lat="44.51748" lon="6.81931">
        <ele>2094.05</ele>
        <time>2018-04-20T04:04:09.000Z</time>
      </trkpt>
      <trkpt lat="44.51739" lon="6.81953">
        <ele>2097.51</ele>
        <time>2018-04-20T04:04:29.000Z</time>
      </trkpt>
      <trkpt lat="44.51729" lon="6.81974">
        <ele>2102.25</ele>
        <time>2018-04-20T04:04:57.000Z</time>
      </trkpt>
      <trkpt lat="44.51722" lon="6.82">
        <ele>2105.2</ele>
        <time>2018-04-20T04:05:25.000Z</time>
      </trkpt>
      <trkpt lat="44.51712" lon="6.82023">
        <ele>2108.04</ele>
        <time>2018-04-20T04:05:45.000Z</time>
      </trkpt>
      <trkpt lat="44.51703" lon="6.82046">
        <ele>2110.97</ele>
        <time>2018-04-20T04:06:05.000Z</time>
      </trkpt>
      <trkpt lat="44.51695" lon="6.8207">
        <ele>2122.52</ele>
        <time>2018-04-20T04:08:45.000Z</time>
      </trkpt>
      <trkpt lat="44.51698" lon="6.82095">
        <ele>2126.27</ele>
        <time>2018-04-20T04:09:05.000Z</time>
      </trkpt>
      <trkpt lat="44.51706" lon="6.82123">
        <ele>2131.57</ele>
        <time>2018-04-20T04:09:29.000Z</time>
      </trkpt>
      <trkpt lat="44.51701" lon="6.82149">
        <ele>2135.68</ele>
        <time>2018-04-20T04:10:01.000Z</time>
      </trkpt>
      <trkpt lat="44.51707" lon="6.82175">
        <ele>2141.07</ele>
        <time>2018-04-20T04:10:49.000Z</time>
      </trkpt>
      <trkpt lat="44.51704" lon="6.822">
        <ele>2144.4</ele>
        <time>2018-04-20T04:11:17.000Z</time>
      </trkpt>
      <trkpt lat="44.51697" lon="6.82224">
        <ele>2147.6</ele>
        <time>2018-04-20T04:11:41.000Z</time>
      </trkpt>
      <trkpt lat="44.51688" lon="6.8225">
        <ele>2153.22</ele>
        <time>2018-04-20T04:12:17.000Z</time>
      </trkpt>
      <trkpt lat="44.51671" lon="6.82263">
        <ele>2156.89</ele>
        <time>2018-04-20T04:12:41.000Z</time>
      </trkpt>
      <trkpt lat="44.51651" lon="6.82273">
        <ele>2159.26</ele>
        <time>2018-04-20T04:13:01.000Z</time>
      </trkpt>
      <trkpt lat="44.51634" lon="6.82282">
        <ele>2161.43</ele>
        <time>2018-04-20T04:13:21.000Z</time>
      </trkpt>
      <trkpt lat="44.5162" lon="6.82297">
        <ele>2164.47</ele>
        <time>2018-04-20T04:13:50.000Z</time>
      </trkpt>
      <trkpt lat="44.51603" lon="6.82318">
        <ele>2166.32</ele>
        <time>2018-04-20T04:14:18.000Z</time>
      </trkpt>
      <trkpt lat="44.5159" lon="6.82336">
        <ele>2167.63</ele>
        <time>2018-04-20T04:14:42.000Z</time>
      </trkpt>
      <trkpt lat="44.51574" lon="6.82349">
        <ele>2169.65</ele>
        <time>2018-04-20T04:15:02.000Z</time>
      </trkpt>
      <trkpt lat="44.51557" lon="6.82364">
        <ele>2172.83</ele>
        <time>2018-04-20T04:15:26.000Z</time>
      </trkpt>
      <trkpt lat="44.51544" lon="6.82382">
        <ele>2175.79</ele>
        <time>2018-04-20T04:15:46.000Z</time>
      </trkpt>
      <trkpt lat="44.51538" lon="6.82408">
        <ele>2178.99</ele>
        <time>2018-04-20T04:16:14.000Z</time>
      </trkpt>
      <trkpt lat="44.51534" lon="6.82438">
        <ele>2185.08</ele>
        <time>2018-04-20T04:17:54.000Z</time>
      </trkpt>
      <trkpt lat="44.51527" lon="6.82463">
        <ele>2188.99</ele>
        <time>2018-04-20T04:18:30.000Z</time>
      </trkpt>
      <trkpt lat="44.51516" lon="6.82485">
        <ele>2192.04</ele>
        <time>2018-04-20T04:18:58.000Z</time>
      </trkpt>
      <trkpt lat="44.51508" lon="6.82512">
        <ele>2193.54</ele>
        <time>2018-04-20T04:19:22.000Z</time>
      </trkpt>
      <trkpt lat="44.51504" lon="6.82541">
        <ele>2195.64</ele>
        <time>2018-04-20T04:19:42.000Z</time>
      </trkpt>
      <trkpt lat="44.51501" lon="6.82566">
        <ele>2198.53</ele>
        <time>2018-04-20T04:20:06.000Z</time>
      </trkpt>
      <trkpt lat="44.51495" lon="6.8259">
        <ele>2201.03</ele>
        <time>2018-04-20T04:20:26.000Z</time>
      </trkpt>
      <trkpt lat="44.51488" lon="6.82617">
        <ele>2204.06</ele>
        <time>2018-04-20T04:20:50.000Z</time>
      </trkpt>
      <trkpt lat="44.51478" lon="6.82642">
        <ele>2206.44</ele>
        <time>2018-04-20T04:21:18.000Z</time>
      </trkpt>
      <trkpt lat="44.51467" lon="6.82663">
        <ele>2207.79</ele>
        <time>2018-04-20T04:21:38.000Z</time>
      </trkpt>
      <trkpt lat="44.51456" lon="6.82684">
        <ele>2209.11</ele>
        <time>2018-04-20T04:22:02.000Z</time>
      </trkpt>
      <trkpt lat="44.51448" lon="6.82708">
        <ele>2210.18</ele>
        <time>2018-04-20T04:22:26.000Z</time>
      </trkpt>
      <trkpt lat="44.5144" lon="6.82733">
        <ele>2211.78</ele>
        <time>2018-04-20T04:22:46.000Z</time>
      </trkpt>
      <trkpt lat="44.51434" lon="6.82759">
        <ele>2214.18</ele>
        <time>2018-04-20T04:23:10.000Z</time>
      </trkpt>
      <trkpt lat="44.5143" lon="6.82784">
        <ele>2217.94</ele>
        <time>2018-04-20T04:23:38.000Z</time>
      </trkpt>
      <trkpt lat="44.51426" lon="6.8281">
        <ele>2220.85</ele>
        <time>2018-04-20T04:24:02.000Z</time>
      </trkpt>
      <trkpt lat="44.51422" lon="6.82834">
        <ele>2223.97</ele>
        <time>2018-04-20T04:24:30.000Z</time>
      </trkpt>
      <trkpt lat="44.51416" lon="6.8286">
        <ele>2227.07</ele>
        <time>2018-04-20T04:24:54.000Z</time>
      </trkpt>
      <trkpt lat="44.51406" lon="6.82883">
        <ele>2229.52</ele>
        <time>2018-04-20T04:25:14.000Z</time>
      </trkpt>
      <trkpt lat="44.51393" lon="6.82903">
        <ele>2231.79</ele>
        <time>2018-04-20T04:25:42.000Z</time>
      </trkpt>
      <trkpt lat="44.51383" lon="6.82927">
        <ele>2234.88</ele>
        <time>2018-04-20T04:26:06.000Z</time>
      </trkpt>
      <trkpt lat="44.51377" lon="6.82951">
        <ele>2238.82</ele>
        <time>2018-04-20T04:26:30.000Z</time>
      </trkpt>
      <trkpt lat="44.51367" lon="6.82977">
        <ele>2243.43</ele>
        <time>2018-04-20T04:26:54.000Z</time>
      </trkpt>
      <trkpt lat="44.51357" lon="6.83002">
        <ele>2248.94</ele>
        <time>2018-04-20T04:27:22.000Z</time>
      </trkpt>
      <trkpt lat="44.51345" lon="6.83029">
        <ele>2252.33</ele>
        <time>2018-04-20T04:27:46.000Z</time>
      </trkpt>
      <trkpt lat="44.51334" lon="6.8305">
        <ele>2257.79</ele>
        <time>2018-04-20T04:28:26.000Z</time>
      </trkpt>
      <trkpt lat="44.51323" lon="6.83075">
        <ele>2261.01</ele>
        <time>2018-04-20T04:28:46.000Z</time>
      </trkpt>
      <trkpt lat="44.51316" lon="6.83102">
        <ele>2263.12</ele>
        <time>2018-04-20T04:29:06.000Z</time>
      </trkpt>
      <trkpt lat="44.51306" lon="6.83131">
        <ele>2265.2</ele>
        <time>2018-04-20T04:29:34.000Z</time>
      </trkpt>
      <trkpt lat="44.51298" lon="6.83158">
        <ele>2266.73</ele>
        <time>2018-04-20T04:29:54.000Z</time>
      </trkpt>
      <trkpt lat="44.5129" lon="6.83181">
        <ele>2268.52</ele>
        <time>2018-04-20T04:30:14.000Z</time>
      </trkpt>
      <trkpt lat="44.51281" lon="6.83203">
        <ele>2270</ele>
        <time>2018-04-20T04:30:34.000Z</time>
      </trkpt>
      <trkpt lat="44.51274" lon="6.83229">
        <ele>2270.78</ele>
        <time>2018-04-20T04:30:58.000Z</time>
      </trkpt>
      <trkpt lat="44.51268" lon="6.83255">
        <ele>2271.09</ele>
        <time>2018-04-20T04:31:22.000Z</time>
      </trkpt>
      <trkpt lat="44.5126" lon="6.83278">
        <ele>2271.77</ele>
        <time>2018-04-20T04:31:37.000Z</time>
      </trkpt>
      <trkpt lat="44.51253" lon="6.83303">
        <ele>2271.92</ele>
        <time>2018-04-20T04:32:13.000Z</time>
      </trkpt>
      <trkpt lat="44.51245" lon="6.83327">
        <ele>2272.74</ele>
        <time>2018-04-20T04:32:37.000Z</time>
      </trkpt>
      <trkpt lat="44.51242" lon="6.83352">
        <ele>2276.4</ele>
        <time>2018-04-20T04:33:17.000Z</time>
      </trkpt>
      <trkpt lat="44.51229" lon="6.83374">
        <ele>2279.56</ele>
        <time>2018-04-20T04:33:57.000Z</time>
      </trkpt>
      <trkpt lat="44.51214" lon="6.83395">
        <ele>2282.75</ele>
        <time>2018-04-20T04:34:25.000Z</time>
      </trkpt>
      <trkpt lat="44.51202" lon="6.83415">
        <ele>2285.22</ele>
        <time>2018-04-20T04:34:53.000Z</time>
      </trkpt>
      <trkpt lat="44.51192" lon="6.83435">
        <ele>2287.75</ele>
        <time>2018-04-20T04:35:17.000Z</time>
      </trkpt>
      <trkpt lat="44.5118" lon="6.8346">
        <ele>2290.75</ele>
        <time>2018-04-20T04:35:41.000Z</time>
      </trkpt>
      <trkpt lat="44.51166" lon="6.83479">
        <ele>2294.25</ele>
        <time>2018-04-20T04:36:09.000Z</time>
      </trkpt>
      <trkpt lat="44.51157" lon="6.83503">
        <ele>2297.33</ele>
        <time>2018-04-20T04:36:37.000Z</time>
      </trkpt>
      <trkpt lat="44.51145" lon="6.83527">
        <ele>2302.5</ele>
        <time>2018-04-20T04:37:09.000Z</time>
      </trkpt>
      <trkpt lat="44.51136" lon="6.8355">
        <ele>2306.24</ele>
        <time>2018-04-20T04:37:37.000Z</time>
      </trkpt>
      <trkpt lat="44.51131" lon="6.83575">
        <ele>2308.86</ele>
        <time>2018-04-20T04:38:01.000Z</time>
      </trkpt>
      <trkpt lat="44.51123" lon="6.83603">
        <ele>2310.74</ele>
        <time>2018-04-20T04:38:25.000Z</time>
      </trkpt>
      <trkpt lat="44.51114" lon="6.83626">
        <ele>2312.63</ele>
        <time>2018-04-20T04:38:53.000Z</time>
      </trkpt>
      <trkpt lat="44.51114" lon="6.83653">
        <ele>2315.92</ele>
        <time>2018-04-20T04:39:25.000Z</time>
      </trkpt>
      <trkpt lat="44.51128" lon="6.83675">
        <ele>2332.61</ele>
        <time>2018-04-20T04:44:49.000Z</time>
      </trkpt>
      <trkpt lat="44.51135" lon="6.83703">
        <ele>2334.68</ele>
        <time>2018-04-20T04:45:17.000Z</time>
      </trkpt>
      <trkpt lat="44.51141" lon="6.83731">
        <ele>2335.17</ele>
        <time>2018-04-20T04:46:01.000Z</time>
      </trkpt>
      <trkpt lat="44.51149" lon="6.83753">
        <ele>2336.42</ele>
        <time>2018-04-20T04:46:29.000Z</time>
      </trkpt>
      <trkpt lat="44.51163" lon="6.83769">
        <ele>2338.82</ele>
        <time>2018-04-20T04:46:57.000Z</time>
      </trkpt>
      <trkpt lat="44.51173" lon="6.83794">
        <ele>2344.03</ele>
        <time>2018-04-20T04:47:33.000Z</time>
      </trkpt>
      <trkpt lat="44.51182" lon="6.83818">
        <ele>2349.03</ele>
        <time>2018-04-20T04:48:01.000Z</time>
      </trkpt>
      <trkpt lat="44.51186" lon="6.83844">
        <ele>2354.9</ele>
        <time>2018-04-20T04:48:29.000Z</time>
      </trkpt>
      <trkpt lat="44.51199" lon="6.83867">
        <ele>2359.77</ele>
        <time>2018-04-20T04:49:01.000Z</time>
      </trkpt>
      <trkpt lat="44.51211" lon="6.83886">
        <ele>2363.65</ele>
        <time>2018-04-20T04:49:26.000Z</time>
      </trkpt>
      <trkpt lat="44.51223" lon="6.83865">
        <ele>2368.58</ele>
        <time>2018-04-20T04:49:58.000Z</time>
      </trkpt>
      <trkpt lat="44.51234" lon="6.83842">
        <ele>2373.08</ele>
        <time>2018-04-20T04:50:26.000Z</time>
      </trkpt>
      <trkpt lat="44.51251" lon="6.83852">
        <ele>2381.39</ele>
        <time>2018-04-20T04:51:14.000Z</time>
      </trkpt>
      <trkpt lat="44.51257" lon="6.83878">
        <ele>2387.98</ele>
        <time>2018-04-20T04:51:46.000Z</time>
      </trkpt>
      <trkpt lat="44.51273" lon="6.83858">
        <ele>2396.87</ele>
        <time>2018-04-20T04:52:30.000Z</time>
      </trkpt>
      <trkpt lat="44.51289" lon="6.83845">
        <ele>2403.57</ele>
        <time>2018-04-20T04:52:58.000Z</time>
      </trkpt>
      <trkpt lat="44.51308" lon="6.83842">
        <ele>2409.74</ele>
        <time>2018-04-20T04:53:26.000Z</time>
      </trkpt>
      <trkpt lat="44.5132" lon="6.83861">
        <ele>2419.08</ele>
        <time>2018-04-20T04:54:06.000Z</time>
      </trkpt>
      <trkpt lat="44.51338" lon="6.83875">
        <ele>2431.75</ele>
        <time>2018-04-20T04:55:02.000Z</time>
      </trkpt>
      <trkpt lat="44.51356" lon="6.83867">
        <ele>2436.09</ele>
        <time>2018-04-20T04:55:38.000Z</time>
      </trkpt>
      <trkpt lat="44.51375" lon="6.83875">
        <ele>2442.34</ele>
        <time>2018-04-20T04:56:18.000Z</time>
      </trkpt>
      <trkpt lat="44.5138" lon="6.83899">
        <ele>2448.11</ele>
        <time>2018-04-20T04:56:42.000Z</time>
      </trkpt>
      <trkpt lat="44.51397" lon="6.83914">
        <ele>2457.89</ele>
        <time>2018-04-20T05:00:06.000Z</time>
      </trkpt>
      <trkpt lat="44.51414" lon="6.83907">
        <ele>2458.34</ele>
        <time>2018-04-20T05:00:30.000Z</time>
      </trkpt>
      <trkpt lat="44.51434" lon="6.8391">
        <ele>2460.4</ele>
        <time>2018-04-20T05:01:02.000Z</time>
      </trkpt>
      <trkpt lat="44.51452" lon="6.83912">
        <ele>2461.48</ele>
        <time>2018-04-20T05:01:26.000Z</time>
      </trkpt>
      <trkpt lat="44.51471" lon="6.83919">
        <ele>2464.34</ele>
        <time>2018-04-20T05:01:54.000Z</time>
      </trkpt>
      <trkpt lat="44.51489" lon="6.83922">
        <ele>2468.65</ele>
        <time>2018-04-20T05:02:42.000Z</time>
      </trkpt>
      <trkpt lat="44.51507" lon="6.83929">
        <ele>2474.4</ele>
        <time>2018-04-20T05:03:14.000Z</time>
      </trkpt>
      <trkpt lat="44.51525" lon="6.83938">
        <ele>2478.73</ele>
        <time>2018-04-20T05:03:38.000Z</time>
      </trkpt>
      <trkpt lat="44.51543" lon="6.83954">
        <ele>2483.74</ele>
        <time>2018-04-20T05:04:10.000Z</time>
      </trkpt>
      <trkpt lat="44.51555" lon="6.83976">
        <ele>2490.22</ele>
        <time>2018-04-20T05:04:42.000Z</time>
      </trkpt>
      <trkpt lat="44.51567" lon="6.83996">
        <ele>2497.05</ele>
        <time>2018-04-20T05:05:18.000Z</time>
      </trkpt>
      <trkpt lat="44.5158" lon="6.84016">
        <ele>2502.25</ele>
        <time>2018-04-20T05:05:42.000Z</time>
      </trkpt>
      <trkpt lat="44.51594" lon="6.84036">
        <ele>2504.9</ele>
        <time>2018-04-20T05:06:02.000Z</time>
      </trkpt>
      <trkpt lat="44.51608" lon="6.84051">
        <ele>2506.74</ele>
        <time>2018-04-20T05:06:26.000Z</time>
      </trkpt>
      <trkpt lat="44.5163" lon="6.84058">
        <ele>2507.23</ele>
        <time>2018-04-20T05:06:46.000Z</time>
      </trkpt>
      <trkpt lat="44.51646" lon="6.8407">
        <ele>2507.26</ele>
        <time>2018-04-20T05:07:09.000Z</time>
      </trkpt>
      <trkpt lat="44.51665" lon="6.84084">
        <ele>2507.26</ele>
        <time>2018-04-20T05:07:29.000Z</time>
      </trkpt>
      <trkpt lat="44.51682" lon="6.84098">
        <ele>2506.46</ele>
        <time>2018-04-20T05:07:45.000Z</time>
      </trkpt>
      <trkpt lat="44.51694" lon="6.84116">
        <ele>2503.75</ele>
        <time>2018-04-20T05:08:05.000Z</time>
      </trkpt>
      <trkpt lat="44.51709" lon="6.84138">
        <ele>2501.95</ele>
        <time>2018-04-20T05:08:29.000Z</time>
      </trkpt>
      <trkpt lat="44.51728" lon="6.8414">
        <ele>2502.11</ele>
        <time>2018-04-20T05:08:53.000Z</time>
      </trkpt>
      <trkpt lat="44.51746" lon="6.8415">
        <ele>2503.39</ele>
        <time>2018-04-20T05:09:21.000Z</time>
      </trkpt>
      <trkpt lat="44.51766" lon="6.84153">
        <ele>2506.11</ele>
        <time>2018-04-20T05:09:57.000Z</time>
      </trkpt>
      <trkpt lat="44.51787" lon="6.84157">
        <ele>2511.22</ele>
        <time>2018-04-20T05:10:29.000Z</time>
      </trkpt>
      <trkpt lat="44.51802" lon="6.84172">
        <ele>2520.61</ele>
        <time>2018-04-20T05:12:09.000Z</time>
      </trkpt>
      <trkpt lat="44.51811" lon="6.84194">
        <ele>2525.75</ele>
        <time>2018-04-20T05:17:05.000Z</time>
      </trkpt>
      <trkpt lat="44.51828" lon="6.84201">
        <ele>2526.18</ele>
        <time>2018-04-20T05:17:25.000Z</time>
      </trkpt>
      <trkpt lat="44.51845" lon="6.84213">
        <ele>2527</ele>
        <time>2018-04-20T05:17:49.000Z</time>
      </trkpt>
      <trkpt lat="44.51854" lon="6.84235">
        <ele>2528.49</ele>
        <time>2018-04-20T05:18:09.000Z</time>
      </trkpt>
      <trkpt lat="44.5186" lon="6.84263">
        <ele>2529.14</ele>
        <time>2018-04-20T05:18:37.000Z</time>
      </trkpt>
      <trkpt lat="44.51873" lon="6.84287">
        <ele>2532.2</ele>
        <time>2018-04-20T05:19:05.000Z</time>
      </trkpt>
      <trkpt lat="44.5188" lon="6.84314">
        <ele>2537.53</ele>
        <time>2018-04-20T05:19:33.000Z</time>
      </trkpt>
      <trkpt lat="44.5188" lon="6.84341">
        <ele>2542.57</ele>
        <time>2018-04-20T05:20:01.000Z</time>
      </trkpt>
      <trkpt lat="44.51888" lon="6.84367">
        <ele>2548.22</ele>
        <time>2018-04-20T05:20:37.000Z</time>
      </trkpt>
      <trkpt lat="44.51906" lon="6.84365">
        <ele>2556.82</ele>
        <time>2018-04-20T05:21:21.000Z</time>
      </trkpt>
      <trkpt lat="44.51925" lon="6.84353">
        <ele>2560.36</ele>
        <time>2018-04-20T05:21:49.000Z</time>
      </trkpt>
      <trkpt lat="44.51945" lon="6.8435">
        <ele>2563.42</ele>
        <time>2018-04-20T05:22:13.000Z</time>
      </trkpt>
      <trkpt lat="44.51965" lon="6.84358">
        <ele>2568.7</ele>
        <time>2018-04-20T05:22:41.000Z</time>
      </trkpt>
      <trkpt lat="44.51984" lon="6.84366">
        <ele>2572.78</ele>
        <time>2018-04-20T05:23:05.000Z</time>
      </trkpt>
      <trkpt lat="44.52005" lon="6.84369">
        <ele>2576.11</ele>
        <time>2018-04-20T05:23:29.000Z</time>
      </trkpt>
      <trkpt lat="44.52024" lon="6.84367">
        <ele>2578.97</ele>
        <time>2018-04-20T05:23:49.000Z</time>
      </trkpt>
      <trkpt lat="44.52042" lon="6.84364">
        <ele>2581.78</ele>
        <time>2018-04-20T05:24:10.000Z</time>
      </trkpt>
      <trkpt lat="44.52062" lon="6.84374">
        <ele>2584.79</ele>
        <time>2018-04-20T05:24:34.000Z</time>
      </trkpt>
      <trkpt lat="44.52079" lon="6.84381">
        <ele>2588.47</ele>
        <time>2018-04-20T05:25:02.000Z</time>
      </trkpt>
      <trkpt lat="44.52098" lon="6.84383">
        <ele>2591.11</ele>
        <time>2018-04-20T05:25:22.000Z</time>
      </trkpt>
      <trkpt lat="44.52113" lon="6.84396">
        <ele>2593.73</ele>
        <time>2018-04-20T05:25:50.000Z</time>
      </trkpt>
      <trkpt lat="44.52129" lon="6.84413">
        <ele>2595.25</ele>
        <time>2018-04-20T05:26:14.000Z</time>
      </trkpt>
      <trkpt lat="44.52144" lon="6.84428">
        <ele>2598.19</ele>
        <time>2018-04-20T05:26:38.000Z</time>
      </trkpt>
      <trkpt lat="44.52164" lon="6.84427">
        <ele>2604.33</ele>
        <time>2018-04-20T05:27:10.000Z</time>
      </trkpt>
      <trkpt lat="44.52182" lon="6.84431">
        <ele>2610.13</ele>
        <time>2018-04-20T05:27:34.000Z</time>
      </trkpt>
      <trkpt lat="44.52201" lon="6.84425">
        <ele>2619.23</ele>
        <time>2018-04-20T05:28:14.000Z</time>
      </trkpt>
      <trkpt lat="44.5222" lon="6.84418">
        <ele>2624.99</ele>
        <time>2018-04-20T05:28:42.000Z</time>
      </trkpt>
      <trkpt lat="44.52241" lon="6.84408">
        <ele>2629.47</ele>
        <time>2018-04-20T05:29:10.000Z</time>
      </trkpt>
      <trkpt lat="44.5226" lon="6.8441">
        <ele>2630.36</ele>
        <time>2018-04-20T05:29:30.000Z</time>
      </trkpt>
      <trkpt lat="44.5228" lon="6.84415">
        <ele>2633.44</ele>
        <time>2018-04-20T05:30:18.000Z</time>
      </trkpt>
      <trkpt lat="44.5229" lon="6.84392">
        <ele>2636.36</ele>
        <time>2018-04-20T05:30:46.000Z</time>
      </trkpt>
      <trkpt lat="44.523" lon="6.84366">
        <ele>2639.18</ele>
        <time>2018-04-20T05:31:14.000Z</time>
      </trkpt>
      <trkpt lat="44.52318" lon="6.84368">
        <ele>2647.6</ele>
        <time>2018-04-20T05:33:34.000Z</time>
      </trkpt>
      <trkpt lat="44.52338" lon="6.84374">
        <ele>2650.95</ele>
        <time>2018-04-20T05:33:58.000Z</time>
      </trkpt>
      <trkpt lat="44.52357" lon="6.8438">
        <ele>2654.24</ele>
        <time>2018-04-20T05:34:18.000Z</time>
      </trkpt>
      <trkpt lat="44.52376" lon="6.84385">
        <ele>2660.22</ele>
        <time>2018-04-20T05:34:46.000Z</time>
      </trkpt>
      <trkpt lat="44.52394" lon="6.84385">
        <ele>2666.07</ele>
        <time>2018-04-20T05:35:22.000Z</time>
      </trkpt>
      <trkpt lat="44.52398" lon="6.84411">
        <ele>2669.03</ele>
        <time>2018-04-20T05:35:54.000Z</time>
      </trkpt>
      <trkpt lat="44.52415" lon="6.84396">
        <ele>2671.14</ele>
        <time>2018-04-20T05:36:26.000Z</time>
      </trkpt>
      <trkpt lat="44.52435" lon="6.8441">
        <ele>2677.28</ele>
        <time>2018-04-20T05:37:06.000Z</time>
      </trkpt>
      <trkpt lat="44.52453" lon="6.84422">
        <ele>2684.06</ele>
        <time>2018-04-20T05:37:42.000Z</time>
      </trkpt>
      <trkpt lat="44.52473" lon="6.84427">
        <ele>2687.73</ele>
        <time>2018-04-20T05:38:14.000Z</time>
      </trkpt>
      <trkpt lat="44.52488" lon="6.84444">
        <ele>2693.47</ele>
        <time>2018-04-20T05:38:58.000Z</time>
      </trkpt>
      <trkpt lat="44.52509" lon="6.84453">
        <ele>2700.55</ele>
        <time>2018-04-20T05:39:26.000Z</time>
      </trkpt>
      <trkpt lat="44.52525" lon="6.84468">
        <ele>2708.38</ele>
        <time>2018-04-20T05:40:06.000Z</time>
      </trkpt>
      <trkpt lat="44.52544" lon="6.84466">
        <ele>2714.29</ele>
        <time>2018-04-20T05:40:33.000Z</time>
      </trkpt>
      <trkpt lat="44.52563" lon="6.84464">
        <ele>2720.02</ele>
        <time>2018-04-20T05:41:05.000Z</time>
      </trkpt>
      <trkpt lat="44.52582" lon="6.84459">
        <ele>2727.6</ele>
        <time>2018-04-20T05:41:45.000Z</time>
      </trkpt>
      <trkpt lat="44.52591" lon="6.84434">
        <ele>2733.11</ele>
        <time>2018-04-20T05:42:17.000Z</time>
      </trkpt>
      <trkpt lat="44.5261" lon="6.84445">
        <ele>2748.33</ele>
        <time>2018-04-20T05:49:46.000Z</time>
      </trkpt>
      <trkpt lat="44.52625" lon="6.8446">
        <ele>2747.44</ele>
        <time>2018-04-20T05:50:06.000Z</time>
      </trkpt>
      <trkpt lat="44.52644" lon="6.84473">
        <ele>2747.38</ele>
        <time>2018-04-20T05:50:26.000Z</time>
      </trkpt>
      <trkpt lat="44.52659" lon="6.8449">
        <ele>2748.18</ele>
        <time>2018-04-20T05:50:46.000Z</time>
      </trkpt>
      <trkpt lat="44.52678" lon="6.84492">
        <ele>2749.31</ele>
        <time>2018-04-20T05:51:06.000Z</time>
      </trkpt>
      <trkpt lat="44.52696" lon="6.84488">
        <ele>2749.49</ele>
        <time>2018-04-20T05:51:26.000Z</time>
      </trkpt>
      <trkpt lat="44.52715" lon="6.84485">
        <ele>2750.6</ele>
        <time>2018-04-20T05:51:46.000Z</time>
      </trkpt>
      <trkpt lat="44.52732" lon="6.8448">
        <ele>2751.81</ele>
        <time>2018-04-20T05:52:02.000Z</time>
      </trkpt>
      <trkpt lat="44.52751" lon="6.84483">
        <ele>2754.44</ele>
        <time>2018-04-20T05:52:34.000Z</time>
      </trkpt>
      <trkpt lat="44.5277" lon="6.84487">
        <ele>2756.44</ele>
        <time>2018-04-20T05:53:02.000Z</time>
      </trkpt>
      <trkpt lat="44.52793" lon="6.84487">
        <ele>2757.84</ele>
        <time>2018-04-20T05:53:22.000Z</time>
      </trkpt>
      <trkpt lat="44.52814" lon="6.84489">
        <ele>2760.86</ele>
        <time>2018-04-20T05:53:46.000Z</time>
      </trkpt>
      <trkpt lat="44.52835" lon="6.84493">
        <ele>2765.81</ele>
        <time>2018-04-20T05:54:18.000Z</time>
      </trkpt>
      <trkpt lat="44.52858" lon="6.84484">
        <ele>2767.84</ele>
        <time>2018-04-20T05:54:34.000Z</time>
      </trkpt>
      <trkpt lat="44.52876" lon="6.84473">
        <ele>2772.29</ele>
        <time>2018-04-20T05:54:58.000Z</time>
      </trkpt>
      <trkpt lat="44.52895" lon="6.84479">
        <ele>2776.46</ele>
        <time>2018-04-20T05:55:18.000Z</time>
      </trkpt>
      <trkpt lat="44.52915" lon="6.84489">
        <ele>2778.74</ele>
        <time>2018-04-20T05:55:34.000Z</time>
      </trkpt>
      <trkpt lat="44.52932" lon="6.84499">
        <ele>2780.66</ele>
        <time>2018-04-20T05:55:50.000Z</time>
      </trkpt>
      <trkpt lat="44.52947" lon="6.84517">
        <ele>2782.82</ele>
        <time>2018-04-20T05:56:14.000Z</time>
      </trkpt>
      <trkpt lat="44.52966" lon="6.8453">
        <ele>2782.97</ele>
        <time>2018-04-20T05:56:39.000Z</time>
      </trkpt>
      <trkpt lat="44.52982" lon="6.84543">
        <ele>2781.92</ele>
        <time>2018-04-20T05:56:59.000Z</time>
      </trkpt>
      <trkpt lat="44.52999" lon="6.84549">
        <ele>2780.86</ele>
        <time>2018-04-20T05:57:19.000Z</time>
      </trkpt>
      <trkpt lat="44.53019" lon="6.84559">
        <ele>2781.12</ele>
        <time>2018-04-20T05:57:43.000Z</time>
      </trkpt>
      <trkpt lat="44.53041" lon="6.84563">
        <ele>2782.85</ele>
        <time>2018-04-20T05:58:07.000Z</time>
      </trkpt>
      <trkpt lat="44.53059" lon="6.84571">
        <ele>2783.79</ele>
        <time>2018-04-20T05:58:27.000Z</time>
      </trkpt>
      <trkpt lat="44.53078" lon="6.84592">
        <ele>2787.3</ele>
        <time>2018-04-20T05:58:55.000Z</time>
      </trkpt>
      <trkpt lat="44.53093" lon="6.8461">
        <ele>2786.78</ele>
        <time>2018-04-20T05:59:11.000Z</time>
      </trkpt>
      <trkpt lat="44.53108" lon="6.84635">
        <ele>2790.84</ele>
        <time>2018-04-20T06:01:19.000Z</time>
      </trkpt>
      <trkpt lat="44.5312" lon="6.84659">
        <ele>2794.23</ele>
        <time>2018-04-20T06:01:39.000Z</time>
      </trkpt>
      <trkpt lat="44.53133" lon="6.8468">
        <ele>2793.69</ele>
        <time>2018-04-20T06:02:03.000Z</time>
      </trkpt>
      <trkpt lat="44.53147" lon="6.84697">
        <ele>2794.71</ele>
        <time>2018-04-20T06:02:43.000Z</time>
      </trkpt>
      <trkpt lat="44.53157" lon="6.84723">
        <ele>2793.51</ele>
        <time>2018-04-20T06:03:03.000Z</time>
      </trkpt>
      <trkpt lat="44.53167" lon="6.84745">
        <ele>2791.28</ele>
        <time>2018-04-20T06:03:27.000Z</time>
      </trkpt>
      <trkpt lat="44.5318" lon="6.84767">
        <ele>2790.29</ele>
        <time>2018-04-20T06:03:51.000Z</time>
      </trkpt>
      <trkpt lat="44.53191" lon="6.84788">
        <ele>2789.99</ele>
        <time>2018-04-20T06:04:23.000Z</time>
      </trkpt>
      <trkpt lat="44.53207" lon="6.84804">
        <ele>2792.09</ele>
        <time>2018-04-20T06:04:47.000Z</time>
      </trkpt>
      <trkpt lat="44.53222" lon="6.8482">
        <ele>2796.01</ele>
        <time>2018-04-20T06:05:15.000Z</time>
      </trkpt>
      <trkpt lat="44.53242" lon="6.84835">
        <ele>2805.79</ele>
        <time>2018-04-20T06:06:07.000Z</time>
      </trkpt>
      <trkpt lat="44.53252" lon="6.84857">
        <ele>2808.65</ele>
        <time>2018-04-20T06:06:39.000Z</time>
      </trkpt>
      <trkpt lat="44.53254" lon="6.84883">
        <ele>2808.87</ele>
        <time>2018-04-20T06:07:07.000Z</time>
      </trkpt>
      <trkpt lat="44.53265" lon="6.84906">
        <ele>2808.15</ele>
        <time>2018-04-20T06:07:27.000Z</time>
      </trkpt>
      <trkpt lat="44.53278" lon="6.84927">
        <ele>2807.09</ele>
        <time>2018-04-20T06:07:47.000Z</time>
      </trkpt>
      <trkpt lat="44.53288" lon="6.84951">
        <ele>2809.2</ele>
        <time>2018-04-20T06:08:19.000Z</time>
      </trkpt>
      <trkpt lat="44.53306" lon="6.8496">
        <ele>2814.83</ele>
        <time>2018-04-20T06:08:47.000Z</time>
      </trkpt>
      <trkpt lat="44.53322" lon="6.84971">
        <ele>2821.44</ele>
        <time>2018-04-20T06:09:19.000Z</time>
      </trkpt>
      <trkpt lat="44.53345" lon="6.84973">
        <ele>2824.79</ele>
        <time>2018-04-20T06:09:35.000Z</time>
      </trkpt>
      <trkpt lat="44.53362" lon="6.84987">
        <ele>2839.55</ele>
        <time>2018-04-20T06:11:11.000Z</time>
      </trkpt>
      <trkpt lat="44.53375" lon="6.85006">
        <ele>2842.61</ele>
        <time>2018-04-20T06:16:10.000Z</time>
      </trkpt>
      <trkpt lat="44.53389" lon="6.85023">
        <ele>2842.9</ele>
        <time>2018-04-20T06:16:30.000Z</time>
      </trkpt>
      <trkpt lat="44.53404" lon="6.85038">
        <ele>2844.17</ele>
        <time>2018-04-20T06:16:50.000Z</time>
      </trkpt>
      <trkpt lat="44.53419" lon="6.8506">
        <ele>2847.03</ele>
        <time>2018-04-20T06:17:10.000Z</time>
      </trkpt>
      <trkpt lat="44.53433" lon="6.85078">
        <ele>2850.27</ele>
        <time>2018-04-20T06:17:30.000Z</time>
      </trkpt>
      <trkpt lat="44.53443" lon="6.85099">
        <ele>2855.77</ele>
        <time>2018-04-20T06:19:14.000Z</time>
      </trkpt>
      <trkpt lat="44.53444" lon="6.85125">
        <ele>2856.99</ele>
        <time>2018-04-20T06:19:30.000Z</time>
      </trkpt>
      <trkpt lat="44.53443" lon="6.85153">
        <ele>2857.66</ele>
        <time>2018-04-20T06:19:46.000Z</time>
      </trkpt>
      <trkpt lat="44.53447" lon="6.85178">
        <ele>2858.52</ele>
        <time>2018-04-20T06:20:06.000Z</time>
      </trkpt>
      <trkpt lat="44.53456" lon="6.85202">
        <ele>2859.44</ele>
        <time>2018-04-20T06:20:22.000Z</time>
      </trkpt>
      <trkpt lat="44.53466" lon="6.85228">
        <ele>2859.07</ele>
        <time>2018-04-20T06:20:38.000Z</time>
      </trkpt>
      <trkpt lat="44.53471" lon="6.85256">
        <ele>2857.3</ele>
        <time>2018-04-20T06:20:58.000Z</time>
      </trkpt>
      <trkpt lat="44.53477" lon="6.85283">
        <ele>2856.03</ele>
        <time>2018-04-20T06:21:22.000Z</time>
      </trkpt>
      <trkpt lat="44.53479" lon="6.85308">
        <ele>2855.69</ele>
        <time>2018-04-20T06:21:42.000Z</time>
      </trkpt>
      <trkpt lat="44.53484" lon="6.85341">
        <ele>2855.52</ele>
        <time>2018-04-20T06:22:02.000Z</time>
      </trkpt>
      <trkpt lat="44.53491" lon="6.85369">
        <ele>2854.76</ele>
        <time>2018-04-20T06:22:14.000Z</time>
      </trkpt>
      <trkpt lat="44.5349" lon="6.85398">
        <ele>2851.34</ele>
        <time>2018-04-20T06:25:02.000Z</time>
      </trkpt>
      <trkpt lat="44.53481" lon="6.85422">
        <ele>2848.17</ele>
        <time>2018-04-20T06:25:14.000Z</time>
      </trkpt>
      <trkpt lat="44.53471" lon="6.85455">
        <ele>2844.78</ele>
        <time>2018-04-20T06:25:30.000Z</time>
      </trkpt>
      <trkpt lat="44.53467" lon="6.85482">
        <ele>2836.87</ele>
        <time>2018-04-20T06:25:50.000Z</time>
      </trkpt>
      <trkpt lat="44.53469" lon="6.85511">
        <ele>2826.37</ele>
        <time>2018-04-20T06:26:18.000Z</time>
      </trkpt>
      <trkpt lat="44.53477" lon="6.85537">
        <ele>2822.35</ele>
        <time>2018-04-20T06:26:38.000Z</time>
      </trkpt>
      <trkpt lat="44.53479" lon="6.85564">
        <ele>2820.96</ele>
        <time>2018-04-20T06:27:02.000Z</time>
      </trkpt>
      <trkpt lat="44.53473" lon="6.8559">
        <ele>2822.26</ele>
        <time>2018-04-20T06:27:22.000Z</time>
      </trkpt>
      <trkpt lat="44.5348" lon="6.85616">
        <ele>2824.44</ele>
        <time>2018-04-20T06:27:42.000Z</time>
      </trkpt>
      <trkpt lat="44.53492" lon="6.85639">
        <ele>2826.54</ele>
        <time>2018-04-20T06:28:02.000Z</time>
      </trkpt>
      <trkpt lat="44.53501" lon="6.85665">
        <ele>2829.21</ele>
        <time>2018-04-20T06:28:31.000Z</time>
      </trkpt>
      <trkpt lat="44.5351" lon="6.85689">
        <ele>2831.33</ele>
        <time>2018-04-20T06:28:51.000Z</time>
      </trkpt>
      <trkpt lat="44.53519" lon="6.85711">
        <ele>2834.78</ele>
        <time>2018-04-20T06:29:11.000Z</time>
      </trkpt>
      <trkpt lat="44.53529" lon="6.8574">
        <ele>2841.85</ele>
        <time>2018-04-20T06:29:43.000Z</time>
      </trkpt>
      <trkpt lat="44.53533" lon="6.85769">
        <ele>2845.55</ele>
        <time>2018-04-20T06:30:03.000Z</time>
      </trkpt>
      <trkpt lat="44.53539" lon="6.85794">
        <ele>2848.57</ele>
        <time>2018-04-20T06:30:27.000Z</time>
      </trkpt>
      <trkpt lat="44.53547" lon="6.85821">
        <ele>2851.08</ele>
        <time>2018-04-20T06:30:47.000Z</time>
      </trkpt>
      <trkpt lat="44.5356" lon="6.85849">
        <ele>2857.3</ele>
        <time>2018-04-20T06:31:11.000Z</time>
      </trkpt>
      <trkpt lat="44.53577" lon="6.85859">
        <ele>2860.5</ele>
        <time>2018-04-20T06:31:23.000Z</time>
      </trkpt>
      <trkpt lat="44.53591" lon="6.85879">
        <ele>2866.03</ele>
        <time>2018-04-20T06:31:39.000Z</time>
      </trkpt>
      <trkpt lat="44.53601" lon="6.85909">
        <ele>2869.34</ele>
        <time>2018-04-20T06:31:59.000Z</time>
      </trkpt>
      <trkpt lat="44.53606" lon="6.85933">
        <ele>2871.12</ele>
        <time>2018-04-20T06:32:19.000Z</time>
      </trkpt>
      <trkpt lat="44.53612" lon="6.85966">
        <ele>2873.69</ele>
        <time>2018-04-20T06:32:43.000Z</time>
      </trkpt>
      <trkpt lat="44.5362" lon="6.85992">
        <ele>2874.92</ele>
        <time>2018-04-20T06:33:03.000Z</time>
      </trkpt>
      <trkpt lat="44.53626" lon="6.86022">
        <ele>2874.82</ele>
        <time>2018-04-20T06:33:27.000Z</time>
      </trkpt>
      <trkpt lat="44.53632" lon="6.8605">
        <ele>2872.14</ele>
        <time>2018-04-20T06:33:51.000Z</time>
      </trkpt>
      <trkpt lat="44.53635" lon="6.86076">
        <ele>2869.66</ele>
        <time>2018-04-20T06:34:15.000Z</time>
      </trkpt>
      <trkpt lat="44.53631" lon="6.86103">
        <ele>2872.67</ele>
        <time>2018-04-20T06:34:51.000Z</time>
      </trkpt>
      <trkpt lat="44.53636" lon="6.86129">
        <ele>2878.36</ele>
        <time>2018-04-20T06:35:43.000Z</time>
      </trkpt>
      <trkpt lat="44.53633" lon="6.86158">
        <ele>2882.22</ele>
        <time>2018-04-20T06:36:03.000Z</time>
      </trkpt>
      <trkpt lat="44.53617" lon="6.86174">
        <ele>2888.22</ele>
        <time>2018-04-20T06:37:19.000Z</time>
      </trkpt>
      <trkpt lat="44.53616" lon="6.86199">
        <ele>2887.17</ele>
        <time>2018-04-20T06:37:47.000Z</time>
      </trkpt>
      <trkpt lat="44.53605" lon="6.86221">
        <ele>2887.92</ele>
        <time>2018-04-20T06:38:27.000Z</time>
      </trkpt>
      <trkpt lat="44.53607" lon="6.86247">
        <ele>2889.53</ele>
        <time>2018-04-20T06:38:55.000Z</time>
      </trkpt>
      <trkpt lat="44.53596" lon="6.86269">
        <ele>2901.82</ele>
        <time>2018-04-20T06:40:15.000Z</time>
      </trkpt>
      <trkpt lat="44.53587" lon="6.86296">
        <ele>2907.14</ele>
        <time>2018-04-20T06:40:43.000Z</time>
      </trkpt>
      <trkpt lat="44.53577" lon="6.86322">
        <ele>2911.57</ele>
        <time>2018-04-20T06:41:19.000Z</time>
      </trkpt>
      <trkpt lat="44.53564" lon="6.86343">
        <ele>2932.82</ele>
        <time>2018-04-20T06:56:42.000Z</time>
      </trkpt>
      <trkpt lat="44.53539" lon="6.8634">
        <ele>2932.09</ele>
        <time>2018-04-20T06:56:50.000Z</time>
      </trkpt>
      <trkpt lat="44.53517" lon="6.86338">
        <ele>2931.44</ele>
        <time>2018-04-20T06:56:58.000Z</time>
      </trkpt>
      <trkpt lat="44.53498" lon="6.86333">
        <ele>2930.65</ele>
        <time>2018-04-20T06:57:06.000Z</time>
      </trkpt>
      <trkpt lat="44.53475" lon="6.86328">
        <ele>2928.78</ele>
        <time>2018-04-20T06:57:18.000Z</time>
      </trkpt>
      <trkpt lat="44.53457" lon="6.86325">
        <ele>2926.96</ele>
        <time>2018-04-20T06:57:26.000Z</time>
      </trkpt>
      <trkpt lat="44.5344" lon="6.86342">
        <ele>2906.71</ele>
        <time>2018-04-20T06:57:38.000Z</time>
      </trkpt>
      <trkpt lat="44.53421" lon="6.86358">
        <ele>2898.1</ele>
        <time>2018-04-20T06:57:42.000Z</time>
      </trkpt>
      <trkpt lat="44.53396" lon="6.8637">
        <ele>2892.35</ele>
        <time>2018-04-20T06:57:50.000Z</time>
      </trkpt>
      <trkpt lat="44.53368" lon="6.86376">
        <ele>2887.67</ele>
        <time>2018-04-20T06:57:58.000Z</time>
      </trkpt>
      <trkpt lat="44.5335" lon="6.86377">
        <ele>2885.42</ele>
        <time>2018-04-20T06:58:18.000Z</time>
      </trkpt>
      <trkpt lat="44.53336" lon="6.86357">
        <ele>2883.68</ele>
        <time>2018-04-20T06:58:22.000Z</time>
      </trkpt>
      <trkpt lat="44.53319" lon="6.86339">
        <ele>2880.96</ele>
        <time>2018-04-20T06:58:26.000Z</time>
      </trkpt>
      <trkpt lat="44.53296" lon="6.8632">
        <ele>2878.41</ele>
        <time>2018-04-20T06:59:54.000Z</time>
      </trkpt>
      <trkpt lat="44.53275" lon="6.86331">
        <ele>2876.71</ele>
        <time>2018-04-20T07:00:22.000Z</time>
      </trkpt>
      <trkpt lat="44.53257" lon="6.86336">
        <ele>2870.15</ele>
        <time>2018-04-20T07:00:26.000Z</time>
      </trkpt>
      <trkpt lat="44.53233" lon="6.86362">
        <ele>2856.27</ele>
        <time>2018-04-20T07:00:30.000Z</time>
      </trkpt>
      <trkpt lat="44.53184" lon="6.86358">
        <ele>2848.16</ele>
        <time>2018-04-20T07:00:34.000Z</time>
      </trkpt>
      <trkpt lat="44.53154" lon="6.86366">
        <ele>2841.25</ele>
        <time>2018-04-20T07:00:38.000Z</time>
      </trkpt>
      <trkpt lat="44.53125" lon="6.86378">
        <ele>2834.76</ele>
        <time>2018-04-20T07:00:42.000Z</time>
      </trkpt>
      <trkpt lat="44.531" lon="6.86388">
        <ele>2830.69</ele>
        <time>2018-04-20T07:00:46.000Z</time>
      </trkpt>
      <trkpt lat="44.53078" lon="6.86398">
        <ele>2828.36</ele>
        <time>2018-04-20T07:00:54.000Z</time>
      </trkpt>
      <trkpt lat="44.53057" lon="6.8642">
        <ele>2826.1</ele>
        <time>2018-04-20T07:01:50.000Z</time>
      </trkpt>
      <trkpt lat="44.53035" lon="6.86437">
        <ele>2824.36</ele>
        <time>2018-04-20T07:02:43.000Z</time>
      </trkpt>
      <trkpt lat="44.53013" lon="6.86447">
        <ele>2823.11</ele>
        <time>2018-04-20T07:02:51.000Z</time>
      </trkpt>
      <trkpt lat="44.52991" lon="6.86458">
        <ele>2821.36</ele>
        <time>2018-04-20T07:03:03.000Z</time>
      </trkpt>
      <trkpt lat="44.52969" lon="6.86453">
        <ele>2819.92</ele>
        <time>2018-04-20T07:03:31.000Z</time>
      </trkpt>
      <trkpt lat="44.52939" lon="6.86477">
        <ele>2822.75</ele>
        <time>2018-04-20T07:03:43.000Z</time>
      </trkpt>
      <trkpt lat="44.52921" lon="6.86497">
        <ele>2818.73</ele>
        <time>2018-04-20T07:05:07.000Z</time>
      </trkpt>
      <trkpt lat="44.52918" lon="6.86524">
        <ele>2813.06</ele>
        <time>2018-04-20T07:05:31.000Z</time>
      </trkpt>
      <trkpt lat="44.52911" lon="6.86551">
        <ele>2806.59</ele>
        <time>2018-04-20T07:06:03.000Z</time>
      </trkpt>
      <trkpt lat="44.52901" lon="6.86574">
        <ele>2807.84</ele>
        <time>2018-04-20T07:06:43.000Z</time>
      </trkpt>
      <trkpt lat="44.52898" lon="6.866">
        <ele>2826.48</ele>
        <time>2018-04-20T07:13:15.000Z</time>
      </trkpt>
      <trkpt lat="44.52878" lon="6.86608">
        <ele>2830.86</ele>
        <time>2018-04-20T07:14:15.000Z</time>
      </trkpt>
      <trkpt lat="44.52861" lon="6.86624">
        <ele>2831.61</ele>
        <time>2018-04-20T07:14:31.000Z</time>
      </trkpt>
      <trkpt lat="44.52835" lon="6.86642">
        <ele>2828.28</ele>
        <time>2018-04-20T07:17:47.000Z</time>
      </trkpt>
      <trkpt lat="44.52815" lon="6.8666">
        <ele>2828.88</ele>
        <time>2018-04-20T07:18:23.000Z</time>
      </trkpt>
      <trkpt lat="44.52794" lon="6.86689">
        <ele>2828.36</ele>
        <time>2018-04-20T07:18:31.000Z</time>
      </trkpt>
      <trkpt lat="44.52765" lon="6.8671">
        <ele>2826.76</ele>
        <time>2018-04-20T07:18:38.000Z</time>
      </trkpt>
      <trkpt lat="44.52744" lon="6.8672">
        <ele>2826.32</ele>
        <time>2018-04-20T07:18:46.000Z</time>
      </trkpt>
      <trkpt lat="44.52721" lon="6.86734">
        <ele>2826.11</ele>
        <time>2018-04-20T07:18:54.000Z</time>
      </trkpt>
      <trkpt lat="44.527" lon="6.86747">
        <ele>2825.94</ele>
        <time>2018-04-20T07:19:02.000Z</time>
      </trkpt>
      <trkpt lat="44.52681" lon="6.86753">
        <ele>2825.37</ele>
        <time>2018-04-20T07:19:06.000Z</time>
      </trkpt>
      <trkpt lat="44.5266" lon="6.86753">
        <ele>2824.3</ele>
        <time>2018-04-20T07:19:10.000Z</time>
      </trkpt>
      <trkpt lat="44.52641" lon="6.86752">
        <ele>2822.47</ele>
        <time>2018-04-20T07:19:14.000Z</time>
      </trkpt>
      <trkpt lat="44.52615" lon="6.86741">
        <ele>2820.33</ele>
        <time>2018-04-20T07:19:22.000Z</time>
      </trkpt>
      <trkpt lat="44.52595" lon="6.8673">
        <ele>2819.88</ele>
        <time>2018-04-20T07:19:30.000Z</time>
      </trkpt>
      <trkpt lat="44.52576" lon="6.86728">
        <ele>2820.1</ele>
        <time>2018-04-20T07:20:26.000Z</time>
      </trkpt>
      <trkpt lat="44.52556" lon="6.86745">
        <ele>2819.68</ele>
        <time>2018-04-20T07:21:38.000Z</time>
      </trkpt>
      <trkpt lat="44.52538" lon="6.86752">
        <ele>2818.41</ele>
        <time>2018-04-20T07:21:42.000Z</time>
      </trkpt>
      <trkpt lat="44.52512" lon="6.86764">
        <ele>2817.02</ele>
        <time>2018-04-20T07:21:50.000Z</time>
      </trkpt>
      <trkpt lat="44.52495" lon="6.86779">
        <ele>2816.43</ele>
        <time>2018-04-20T07:22:02.000Z</time>
      </trkpt>
      <trkpt lat="44.52475" lon="6.86798">
        <ele>2815.89</ele>
        <time>2018-04-20T07:22:10.000Z</time>
      </trkpt>
      <trkpt lat="44.52471" lon="6.86762">
        <ele>2803.65</ele>
        <time>2018-04-20T07:22:50.000Z</time>
      </trkpt>
      <trkpt lat="44.5245" lon="6.86772">
        <ele>2798.68</ele>
        <time>2018-04-20T07:22:54.000Z</time>
      </trkpt>
      <trkpt lat="44.52408" lon="6.86777">
        <ele>2787.57</ele>
        <time>2018-04-20T07:23:02.000Z</time>
      </trkpt>
      <trkpt lat="44.52379" lon="6.86795">
        <ele>2780.23</ele>
        <time>2018-04-20T07:23:06.000Z</time>
      </trkpt>
      <trkpt lat="44.52357" lon="6.86806">
        <ele>2775.67</ele>
        <time>2018-04-20T07:23:10.000Z</time>
      </trkpt>
      <trkpt lat="44.52332" lon="6.86816">
        <ele>2773.28</ele>
        <time>2018-04-20T07:23:18.000Z</time>
      </trkpt>
      <trkpt lat="44.5231" lon="6.86832">
        <ele>2770.7</ele>
        <time>2018-04-20T07:23:38.000Z</time>
      </trkpt>
      <trkpt lat="44.52297" lon="6.8685">
        <ele>2768.77</ele>
        <time>2018-04-20T07:25:14.000Z</time>
      </trkpt>
      <trkpt lat="44.52285" lon="6.8687">
        <ele>2763.86</ele>
        <time>2018-04-20T07:28:34.000Z</time>
      </trkpt>
      <trkpt lat="44.52284" lon="6.869">
        <ele>2760.41</ele>
        <time>2018-04-20T07:34:02.000Z</time>
      </trkpt>
      <trkpt lat="44.52288" lon="6.86925">
        <ele>2757.45</ele>
        <time>2018-04-20T07:34:22.000Z</time>
      </trkpt>
      <trkpt lat="44.52282" lon="6.8695">
        <ele>2756.01</ele>
        <time>2018-04-20T07:34:42.000Z</time>
      </trkpt>
      <trkpt lat="44.52271" lon="6.86974">
        <ele>2755.71</ele>
        <time>2018-04-20T07:35:03.000Z</time>
      </trkpt>
      <trkpt lat="44.52263" lon="6.86999">
        <ele>2754.77</ele>
        <time>2018-04-20T07:35:23.000Z</time>
      </trkpt>
      <trkpt lat="44.52265" lon="6.87026">
        <ele>2752.71</ele>
        <time>2018-04-20T07:35:47.000Z</time>
      </trkpt>
      <trkpt lat="44.5227" lon="6.87052">
        <ele>2751.75</ele>
        <time>2018-04-20T07:36:11.000Z</time>
      </trkpt>
      <trkpt lat="44.52264" lon="6.87077">
        <ele>2751.38</ele>
        <time>2018-04-20T07:36:47.000Z</time>
      </trkpt>
      <trkpt lat="44.52283" lon="6.87075">
        <ele>2749.23</ele>
        <time>2018-04-20T07:37:07.000Z</time>
      </trkpt>
      <trkpt lat="44.52285" lon="6.87104">
        <ele>2746.95</ele>
        <time>2018-04-20T07:37:51.000Z</time>
      </trkpt>
      <trkpt lat="44.52288" lon="6.87129">
        <ele>2753.77</ele>
        <time>2018-04-20T07:39:35.000Z</time>
      </trkpt>
      <trkpt lat="44.52307" lon="6.87136">
        <ele>2772.13</ele>
        <time>2018-04-20T07:45:16.000Z</time>
      </trkpt>
      <trkpt lat="44.52329" lon="6.87131">
        <ele>2774.11</ele>
        <time>2018-04-20T07:45:32.000Z</time>
      </trkpt>
      <trkpt lat="44.52347" lon="6.87131">
        <ele>2775.95</ele>
        <time>2018-04-20T07:45:48.000Z</time>
      </trkpt>
      <trkpt lat="44.52368" lon="6.87138">
        <ele>2777.9</ele>
        <time>2018-04-20T07:46:08.000Z</time>
      </trkpt>
      <trkpt lat="44.52384" lon="6.87159">
        <ele>2779.72</ele>
        <time>2018-04-20T07:46:32.000Z</time>
      </trkpt>
      <trkpt lat="44.52399" lon="6.87179">
        <ele>2780.72</ele>
        <time>2018-04-20T07:46:52.000Z</time>
      </trkpt>
      <trkpt lat="44.52413" lon="6.87199">
        <ele>2781.82</ele>
        <time>2018-04-20T07:47:16.000Z</time>
      </trkpt>
      <trkpt lat="44.52433" lon="6.87208">
        <ele>2783.37</ele>
        <time>2018-04-20T07:47:48.000Z</time>
      </trkpt>
      <trkpt lat="44.52452" lon="6.87215">
        <ele>2784.34</ele>
        <time>2018-04-20T07:48:04.000Z</time>
      </trkpt>
      <trkpt lat="44.52471" lon="6.87221">
        <ele>2785.43</ele>
        <time>2018-04-20T07:48:20.000Z</time>
      </trkpt>
      <trkpt lat="44.5249" lon="6.87227">
        <ele>2786.14</ele>
        <time>2018-04-20T07:48:40.000Z</time>
      </trkpt>
      <trkpt lat="44.5251" lon="6.87241">
        <ele>2787.92</ele>
        <time>2018-04-20T07:49:16.000Z</time>
      </trkpt>
      <trkpt lat="44.52527" lon="6.87253">
        <ele>2787.86</ele>
        <time>2018-04-20T07:49:32.000Z</time>
      </trkpt>
      <trkpt lat="44.52543" lon="6.87267">
        <ele>2787.52</ele>
        <time>2018-04-20T07:49:48.000Z</time>
      </trkpt>
      <trkpt lat="44.52559" lon="6.8728">
        <ele>2787.42</ele>
        <time>2018-04-20T07:50:08.000Z</time>
      </trkpt>
      <trkpt lat="44.52575" lon="6.87295">
        <ele>2788.57</ele>
        <time>2018-04-20T07:50:28.000Z</time>
      </trkpt>
      <trkpt lat="44.52593" lon="6.8731">
        <ele>2789.56</ele>
        <time>2018-04-20T07:50:48.000Z</time>
      </trkpt>
      <trkpt lat="44.52608" lon="6.87326">
        <ele>2789.87</ele>
        <time>2018-04-20T07:51:04.000Z</time>
      </trkpt>
      <trkpt lat="44.52623" lon="6.8734">
        <ele>2790.33</ele>
        <time>2018-04-20T07:51:16.000Z</time>
      </trkpt>
      <trkpt lat="44.52639" lon="6.87354">
        <ele>2793.04</ele>
        <time>2018-04-20T07:51:40.000Z</time>
      </trkpt>
      <trkpt lat="44.52655" lon="6.87368">
        <ele>2795.19</ele>
        <time>2018-04-20T07:52:11.000Z</time>
      </trkpt>
      <trkpt lat="44.52666" lon="6.87393">
        <ele>2797.65</ele>
        <time>2018-04-20T07:52:39.000Z</time>
      </trkpt>
      <trkpt lat="44.52667" lon="6.87421">
        <ele>2801.2</ele>
        <time>2018-04-20T07:53:11.000Z</time>
      </trkpt>
      <trkpt lat="44.52691" lon="6.87422">
        <ele>2829.15</ele>
        <time>2018-04-20T08:04:59.000Z</time>
      </trkpt>
      <trkpt lat="44.5272" lon="6.87435">
        <ele>2825.26</ele>
        <time>2018-04-20T08:05:07.000Z</time>
      </trkpt>
      <trkpt lat="44.5274" lon="6.87447">
        <ele>2823.19</ele>
        <time>2018-04-20T08:05:15.000Z</time>
      </trkpt>
      <trkpt lat="44.52758" lon="6.87455">
        <ele>2820.17</ele>
        <time>2018-04-20T08:05:19.000Z</time>
      </trkpt>
      <trkpt lat="44.52775" lon="6.87464">
        <ele>2817.68</ele>
        <time>2018-04-20T08:05:27.000Z</time>
      </trkpt>
      <trkpt lat="44.52796" lon="6.87476">
        <ele>2816.13</ele>
        <time>2018-04-20T08:05:39.000Z</time>
      </trkpt>
      <trkpt lat="44.52816" lon="6.87483">
        <ele>2813.12</ele>
        <time>2018-04-20T08:05:47.000Z</time>
      </trkpt>
      <trkpt lat="44.52845" lon="6.87491">
        <ele>2807.31</ele>
        <time>2018-04-20T08:05:55.000Z</time>
      </trkpt>
      <trkpt lat="44.52874" lon="6.875">
        <ele>2804.75</ele>
        <time>2018-04-20T08:06:03.000Z</time>
      </trkpt>
      <trkpt lat="44.52897" lon="6.87515">
        <ele>2802.86</ele>
        <time>2018-04-20T08:06:11.000Z</time>
      </trkpt>
      <trkpt lat="44.52916" lon="6.8753">
        <ele>2800.7</ele>
        <time>2018-04-20T08:06:19.000Z</time>
      </trkpt>
      <trkpt lat="44.52934" lon="6.87544">
        <ele>2798.63</ele>
        <time>2018-04-20T08:06:27.000Z</time>
      </trkpt>
      <trkpt lat="44.52956" lon="6.87556">
        <ele>2795.48</ele>
        <time>2018-04-20T08:06:39.000Z</time>
      </trkpt>
      <trkpt lat="44.52973" lon="6.87572">
        <ele>2793.12</ele>
        <time>2018-04-20T08:06:47.000Z</time>
      </trkpt>
      <trkpt lat="44.52996" lon="6.87593">
        <ele>2790.43</ele>
        <time>2018-04-20T08:06:55.000Z</time>
      </trkpt>
      <trkpt lat="44.53008" lon="6.87614">
        <ele>2787.98</ele>
        <time>2018-04-20T08:07:03.000Z</time>
      </trkpt>
      <trkpt lat="44.53017" lon="6.87642">
        <ele>2783.9</ele>
        <time>2018-04-20T08:07:19.000Z</time>
      </trkpt>
      <trkpt lat="44.53026" lon="6.87665">
        <ele>2781.73</ele>
        <time>2018-04-20T08:07:31.000Z</time>
      </trkpt>
      <trkpt lat="44.53031" lon="6.87691">
        <ele>2780.72</ele>
        <time>2018-04-20T08:07:39.000Z</time>
      </trkpt>
      <trkpt lat="44.53038" lon="6.87715">
        <ele>2779.37</ele>
        <time>2018-04-20T08:07:51.000Z</time>
      </trkpt>
      <trkpt lat="44.5304" lon="6.87741">
        <ele>2778.53</ele>
        <time>2018-04-20T08:07:59.000Z</time>
      </trkpt>
      <trkpt lat="44.53037" lon="6.87774">
        <ele>2777.15</ele>
        <time>2018-04-20T08:08:11.000Z</time>
      </trkpt>
      <trkpt lat="44.53033" lon="6.87799">
        <ele>2776.14</ele>
        <time>2018-04-20T08:08:19.000Z</time>
      </trkpt>
      <trkpt lat="44.53028" lon="6.87829">
        <ele>2772.65</ele>
        <time>2018-04-20T08:08:39.000Z</time>
      </trkpt>
      <trkpt lat="44.53023" lon="6.87857">
        <ele>2771.48</ele>
        <time>2018-04-20T08:08:47.000Z</time>
      </trkpt>
      <trkpt lat="44.53017" lon="6.87884">
        <ele>2768.45</ele>
        <time>2018-04-20T08:09:11.000Z</time>
      </trkpt>
      <trkpt lat="44.53005" lon="6.87906">
        <ele>2765.56</ele>
        <time>2018-04-20T08:09:55.000Z</time>
      </trkpt>
      <trkpt lat="44.52993" lon="6.87925">
        <ele>2767.53</ele>
        <time>2018-04-20T08:10:28.000Z</time>
      </trkpt>
      <trkpt lat="44.52978" lon="6.87943">
        <ele>2767.59</ele>
        <time>2018-04-20T08:10:52.000Z</time>
      </trkpt>
      <trkpt lat="44.52988" lon="6.87964">
        <ele>2770.34</ele>
        <time>2018-04-20T08:17:40.000Z</time>
      </trkpt>
      <trkpt lat="44.53004" lon="6.87978">
        <ele>2766.22</ele>
        <time>2018-04-20T08:18:00.000Z</time>
      </trkpt>
      <trkpt lat="44.53018" lon="6.87998">
        <ele>2759.38</ele>
        <time>2018-04-20T08:18:20.000Z</time>
      </trkpt>
      <trkpt lat="44.53027" lon="6.8802">
        <ele>2742.72</ele>
        <time>2018-04-20T08:18:40.000Z</time>
      </trkpt>
      <trkpt lat="44.53021" lon="6.87979">
        <ele>2731.57</ele>
        <time>2018-04-20T08:18:52.000Z</time>
      </trkpt>
      <trkpt lat="44.53028" lon="6.87932">
        <ele>2708.84</ele>
        <time>2018-04-20T08:19:00.000Z</time>
      </trkpt>
      <trkpt lat="44.53053" lon="6.87933">
        <ele>2701.69</ele>
        <time>2018-04-20T08:19:08.000Z</time>
      </trkpt>
      <trkpt lat="44.53086" lon="6.87942">
        <ele>2684.15</ele>
        <time>2018-04-20T08:19:16.000Z</time>
      </trkpt>
      <trkpt lat="44.53106" lon="6.87974">
        <ele>2669.92</ele>
        <time>2018-04-20T08:19:20.000Z</time>
      </trkpt>
      <trkpt lat="44.53117" lon="6.88002">
        <ele>2654.42</ele>
        <time>2018-04-20T08:19:24.000Z</time>
      </trkpt>
      <trkpt lat="44.53129" lon="6.88039">
        <ele>2644.72</ele>
        <time>2018-04-20T08:19:28.000Z</time>
      </trkpt>
      <trkpt lat="44.53143" lon="6.88066">
        <ele>2641.89</ele>
        <time>2018-04-20T08:19:32.000Z</time>
      </trkpt>
      <trkpt lat="44.53153" lon="6.88089">
        <ele>2642.85</ele>
        <time>2018-04-20T08:20:24.000Z</time>
      </trkpt>
      <trkpt lat="44.53132" lon="6.88079">
        <ele>2640.42</ele>
        <time>2018-04-20T08:24:52.000Z</time>
      </trkpt>
      <trkpt lat="44.53153" lon="6.88095">
        <ele>2636.57</ele>
        <time>2018-04-20T08:29:39.000Z</time>
      </trkpt>
      <trkpt lat="44.53159" lon="6.88122">
        <ele>2636.06</ele>
        <time>2018-04-20T08:29:43.000Z</time>
      </trkpt>
      <trkpt lat="44.53166" lon="6.88149">
        <ele>2634.78</ele>
        <time>2018-04-20T08:29:47.000Z</time>
      </trkpt>
      <trkpt lat="44.53174" lon="6.8818">
        <ele>2631.59</ele>
        <time>2018-04-20T08:29:51.000Z</time>
      </trkpt>
      <trkpt lat="44.5318" lon="6.88216">
        <ele>2625.06</ele>
        <time>2018-04-20T08:29:55.000Z</time>
      </trkpt>
      <trkpt lat="44.53178" lon="6.88249">
        <ele>2617.7</ele>
        <time>2018-04-20T08:29:59.000Z</time>
      </trkpt>
      <trkpt lat="44.53198" lon="6.88266">
        <ele>2609.52</ele>
        <time>2018-04-20T08:30:07.000Z</time>
      </trkpt>
      <trkpt lat="44.53193" lon="6.88295">
        <ele>2606.57</ele>
        <time>2018-04-20T08:30:15.000Z</time>
      </trkpt>
      <trkpt lat="44.53196" lon="6.88326">
        <ele>2600.69</ele>
        <time>2018-04-20T08:30:35.000Z</time>
      </trkpt>
      <trkpt lat="44.53197" lon="6.88355">
        <ele>2595.58</ele>
        <time>2018-04-20T08:30:39.000Z</time>
      </trkpt>
      <trkpt lat="44.53201" lon="6.88388">
        <ele>2589.97</ele>
        <time>2018-04-20T08:30:43.000Z</time>
      </trkpt>
      <trkpt lat="44.53201" lon="6.8842">
        <ele>2584</ele>
        <time>2018-04-20T08:30:47.000Z</time>
      </trkpt>
      <trkpt lat="44.53179" lon="6.88439">
        <ele>2577.98</ele>
        <time>2018-04-20T08:30:51.000Z</time>
      </trkpt>
      <trkpt lat="44.53158" lon="6.88461">
        <ele>2571.29</ele>
        <time>2018-04-20T08:30:55.000Z</time>
      </trkpt>
      <trkpt lat="44.53154" lon="6.88518">
        <ele>2554.34</ele>
        <time>2018-04-20T08:31:03.000Z</time>
      </trkpt>
      <trkpt lat="44.53158" lon="6.88548">
        <ele>2543.84</ele>
        <time>2018-04-20T08:31:07.000Z</time>
      </trkpt>
      <trkpt lat="44.53157" lon="6.88587">
        <ele>2533.34</ele>
        <time>2018-04-20T08:31:11.000Z</time>
      </trkpt>
      <trkpt lat="44.53159" lon="6.88628">
        <ele>2523.7</ele>
        <time>2018-04-20T08:31:15.000Z</time>
      </trkpt>
      <trkpt lat="44.53153" lon="6.88663">
        <ele>2505.1</ele>
        <time>2018-04-20T08:31:19.000Z</time>
      </trkpt>
      <trkpt lat="44.53144" lon="6.88689">
        <ele>2489.7</ele>
        <time>2018-04-20T08:31:23.000Z</time>
      </trkpt>
      <trkpt lat="44.53128" lon="6.8872">
        <ele>2463</ele>
        <time>2018-04-20T08:32:31.000Z</time>
      </trkpt>
      <trkpt lat="44.53098" lon="6.88755">
        <ele>2452.35</ele>
        <time>2018-04-20T08:32:35.000Z</time>
      </trkpt>
      <trkpt lat="44.53062" lon="6.88782">
        <ele>2443.22</ele>
        <time>2018-04-20T08:32:39.000Z</time>
      </trkpt>
      <trkpt lat="44.53029" lon="6.88822">
        <ele>2435.31</ele>
        <time>2018-04-20T08:32:43.000Z</time>
      </trkpt>
      <trkpt lat="44.53009" lon="6.88863">
        <ele>2428.88</ele>
        <time>2018-04-20T08:32:47.000Z</time>
      </trkpt>
      <trkpt lat="44.52987" lon="6.88893">
        <ele>2424.05</ele>
        <time>2018-04-20T08:32:51.000Z</time>
      </trkpt>
      <trkpt lat="44.52963" lon="6.88915">
        <ele>2419.42</ele>
        <time>2018-04-20T08:32:55.000Z</time>
      </trkpt>
      <trkpt lat="44.52937" lon="6.88925">
        <ele>2414.88</ele>
        <time>2018-04-20T08:32:59.000Z</time>
      </trkpt>
      <trkpt lat="44.52915" lon="6.88954">
        <ele>2410.97</ele>
        <time>2018-04-20T08:33:03.000Z</time>
      </trkpt>
      <trkpt lat="44.52897" lon="6.88986">
        <ele>2406.39</ele>
        <time>2018-04-20T08:33:07.000Z</time>
      </trkpt>
      <trkpt lat="44.52867" lon="6.89003">
        <ele>2404.81</ele>
        <time>2018-04-20T08:33:11.000Z</time>
      </trkpt>
      <trkpt lat="44.52847" lon="6.89019">
        <ele>2400.86</ele>
        <time>2018-04-20T08:33:15.000Z</time>
      </trkpt>
      <trkpt lat="44.52828" lon="6.89039">
        <ele>2397.06</ele>
        <time>2018-04-20T08:33:19.000Z</time>
      </trkpt>
      <trkpt lat="44.52809" lon="6.8906">
        <ele>2392.36</ele>
        <time>2018-04-20T08:33:23.000Z</time>
      </trkpt>
      <trkpt lat="44.52795" lon="6.89076">
        <ele>2386.92</ele>
        <time>2018-04-20T08:33:31.000Z</time>
      </trkpt>
      <trkpt lat="44.52765" lon="6.89097">
        <ele>2362.09</ele>
        <time>2018-04-20T08:34:59.000Z</time>
      </trkpt>
      <trkpt lat="44.52743" lon="6.8911">
        <ele>2356.42</ele>
        <time>2018-04-20T08:35:03.000Z</time>
      </trkpt>
      <trkpt lat="44.52724" lon="6.8915">
        <ele>2350.79</ele>
        <time>2018-04-20T08:35:11.000Z</time>
      </trkpt>
      <trkpt lat="44.52711" lon="6.89166">
        <ele>2351.67</ele>
        <time>2018-04-20T08:35:15.000Z</time>
      </trkpt>
      <trkpt lat="44.52712" lon="6.892">
        <ele>2352.05</ele>
        <time>2018-04-20T08:35:19.000Z</time>
      </trkpt>
      <trkpt lat="44.52698" lon="6.89231">
        <ele>2351.63</ele>
        <time>2018-04-20T08:35:23.000Z</time>
      </trkpt>
      <trkpt lat="44.52686" lon="6.89254">
        <ele>2350.14</ele>
        <time>2018-04-20T08:35:27.000Z</time>
      </trkpt>
      <trkpt lat="44.52651" lon="6.89286">
        <ele>2335.69</ele>
        <time>2018-04-20T08:35:35.000Z</time>
      </trkpt>
      <trkpt lat="44.52628" lon="6.89324">
        <ele>2330.68</ele>
        <time>2018-04-20T08:35:39.000Z</time>
      </trkpt>
      <trkpt lat="44.52603" lon="6.89356">
        <ele>2325.54</ele>
        <time>2018-04-20T08:35:43.000Z</time>
      </trkpt>
      <trkpt lat="44.52583" lon="6.8939">
        <ele>2320.05</ele>
        <time>2018-04-20T08:35:47.000Z</time>
      </trkpt>
      <trkpt lat="44.52562" lon="6.89404">
        <ele>2308.21</ele>
        <time>2018-04-20T08:35:51.000Z</time>
      </trkpt>
      <trkpt lat="44.52539" lon="6.89441">
        <ele>2297.22</ele>
        <time>2018-04-20T08:35:55.000Z</time>
      </trkpt>
      <trkpt lat="44.52508" lon="6.89463">
        <ele>2287.59</ele>
        <time>2018-04-20T08:35:59.000Z</time>
      </trkpt>
      <trkpt lat="44.52478" lon="6.89486">
        <ele>2280.32</ele>
        <time>2018-04-20T08:36:03.000Z</time>
      </trkpt>
      <trkpt lat="44.52454" lon="6.89516">
        <ele>2274.02</ele>
        <time>2018-04-20T08:36:07.000Z</time>
      </trkpt>
      <trkpt lat="44.52428" lon="6.89547">
        <ele>2268.7</ele>
        <time>2018-04-20T08:36:11.000Z</time>
      </trkpt>
      <trkpt lat="44.52409" lon="6.89578">
        <ele>2262.06</ele>
        <time>2018-04-20T08:36:15.000Z</time>
      </trkpt>
      <trkpt lat="44.5239" lon="6.8961">
        <ele>2256.2</ele>
        <time>2018-04-20T08:36:19.000Z</time>
      </trkpt>
      <trkpt lat="44.52368" lon="6.89635">
        <ele>2252.22</ele>
        <time>2018-04-20T08:36:23.000Z</time>
      </trkpt>
      <trkpt lat="44.5235" lon="6.89657">
        <ele>2250.69</ele>
        <time>2018-04-20T08:36:27.000Z</time>
      </trkpt>
      <trkpt lat="44.52335" lon="6.89685">
        <ele>2248.43</ele>
        <time>2018-04-20T08:36:31.000Z</time>
      </trkpt>
      <trkpt lat="44.52327" lon="6.89708">
        <ele>2243.08</ele>
        <time>2018-04-20T08:36:35.000Z</time>
      </trkpt>
      <trkpt lat="44.52304" lon="6.89746">
        <ele>2222.96</ele>
        <time>2018-04-20T08:36:43.000Z</time>
      </trkpt>
      <trkpt lat="44.52285" lon="6.89789">
        <ele>2181.92</ele>
        <time>2018-04-20T08:38:15.000Z</time>
      </trkpt>
      <trkpt lat="44.52273" lon="6.8982">
        <ele>2174.41</ele>
        <time>2018-04-20T08:38:19.000Z</time>
      </trkpt>
      <trkpt lat="44.52269" lon="6.89849">
        <ele>2168.92</ele>
        <time>2018-04-20T08:38:23.000Z</time>
      </trkpt>
      <trkpt lat="44.52264" lon="6.89878">
        <ele>2165.14</ele>
        <time>2018-04-20T08:38:27.000Z</time>
      </trkpt>
      <trkpt lat="44.52232" lon="6.89901">
        <ele>2154.72</ele>
        <time>2018-04-20T08:38:35.000Z</time>
      </trkpt>
      <trkpt lat="44.52218" lon="6.89923">
        <ele>2146.04</ele>
        <time>2018-04-20T08:38:39.000Z</time>
      </trkpt>
      <trkpt lat="44.52201" lon="6.89942">
        <ele>2137.15</ele>
        <time>2018-04-20T08:38:43.000Z</time>
      </trkpt>
      <trkpt lat="44.52189" lon="6.89966">
        <ele>2126.94</ele>
        <time>2018-04-20T08:38:47.000Z</time>
      </trkpt>
      <trkpt lat="44.52176" lon="6.9001">
        <ele>2107.02</ele>
        <time>2018-04-20T08:39:07.000Z</time>
      </trkpt>
      <trkpt lat="44.52168" lon="6.90041">
        <ele>2099.28</ele>
        <time>2018-04-20T08:39:11.000Z</time>
      </trkpt>
      <trkpt lat="44.52156" lon="6.90069">
        <ele>2092.75</ele>
        <time>2018-04-20T08:39:15.000Z</time>
      </trkpt>
      <trkpt lat="44.52144" lon="6.90097">
        <ele>2086.52</ele>
        <time>2018-04-20T08:39:19.000Z</time>
      </trkpt>
      <trkpt lat="44.52136" lon="6.90126">
        <ele>2081.01</ele>
        <time>2018-04-20T08:39:23.000Z</time>
      </trkpt>
      <trkpt lat="44.52125" lon="6.90152">
        <ele>2044.47</ele>
        <time>2018-04-20T08:40:51.000Z</time>
      </trkpt>
      <trkpt lat="44.52121" lon="6.9018">
        <ele>2033.48</ele>
        <time>2018-04-20T08:40:55.000Z</time>
      </trkpt>
      <trkpt lat="44.52116" lon="6.90206">
        <ele>2025.13</ele>
        <time>2018-04-20T08:40:59.000Z</time>
      </trkpt>
      <trkpt lat="44.52111" lon="6.90242">
        <ele>2017.25</ele>
        <time>2018-04-20T08:41:03.000Z</time>
      </trkpt>
      <trkpt lat="44.521" lon="6.90274">
        <ele>2010.88</ele>
        <time>2018-04-20T08:41:07.000Z</time>
      </trkpt>
      <trkpt lat="44.52094" lon="6.90302">
        <ele>2005.62</ele>
        <time>2018-04-20T08:41:11.000Z</time>
      </trkpt>
      <trkpt lat="44.52077" lon="6.90313">
        <ele>2001.98</ele>
        <time>2018-04-20T08:41:15.000Z</time>
      </trkpt>
      <trkpt lat="44.52055" lon="6.90317">
        <ele>1988.34</ele>
        <time>2018-04-20T08:41:39.000Z</time>
      </trkpt>
      <trkpt lat="44.5203" lon="6.90315">
        <ele>1973.96</ele>
        <time>2018-04-20T08:41:47.000Z</time>
      </trkpt>
      <trkpt lat="44.5204" lon="6.90346">
        <ele>1969.9</ele>
        <time>2018-04-20T08:42:03.000Z</time>
      </trkpt>
      <trkpt lat="44.52015" lon="6.90339">
        <ele>1963.36</ele>
        <time>2018-04-20T08:42:43.000Z</time>
      </trkpt>
      <trkpt lat="44.51999" lon="6.90323">
        <ele>1960.87</ele>
        <time>2018-04-20T08:42:51.000Z</time>
      </trkpt>
      <trkpt lat="44.51981" lon="6.90326">
        <ele>1958.34</ele>
        <time>2018-04-20T08:42:59.000Z</time>
      </trkpt>
      <trkpt lat="44.51985" lon="6.90355">
        <ele>1950.97</ele>
        <time>2018-04-20T08:43:23.000Z</time>
      </trkpt>
      <trkpt lat="44.51987" lon="6.90389">
        <ele>1941.83</ele>
        <time>2018-04-20T08:43:43.000Z</time>
      </trkpt>
      <trkpt lat="44.52002" lon="6.90405">
        <ele>1938.9</ele>
        <time>2018-04-20T08:43:51.000Z</time>
      </trkpt>
      <trkpt lat="44.52005" lon="6.90451">
        <ele>1925.81</ele>
        <time>2018-04-20T08:44:03.000Z</time>
      </trkpt>
      <trkpt lat="44.51969" lon="6.90468">
        <ele>1921.45</ele>
        <time>2018-04-20T08:47:23.000Z</time>
      </trkpt>
      <trkpt lat="44.51948" lon="6.9049">
        <ele>1921.35</ele>
        <time>2018-04-20T08:47:27.000Z</time>
      </trkpt>
      <trkpt lat="44.51929" lon="6.9051">
        <ele>1920.27</ele>
        <time>2018-04-20T08:47:31.000Z</time>
      </trkpt>
      <trkpt lat="44.51912" lon="6.90529">
        <ele>1917.82</ele>
        <time>2018-04-20T08:47:35.000Z</time>
      </trkpt>
      <trkpt lat="44.51884" lon="6.90557">
        <ele>1912.27</ele>
        <time>2018-04-20T08:47:43.000Z</time>
      </trkpt>
      <trkpt lat="44.51853" lon="6.90573">
        <ele>1908.28</ele>
        <time>2018-04-20T08:47:51.000Z</time>
      </trkpt>
      <trkpt lat="44.51823" lon="6.90586">
        <ele>1907.83</ele>
        <time>2018-04-20T08:47:59.000Z</time>
      </trkpt>
      <trkpt lat="44.51798" lon="6.90596">
        <ele>1904.97</ele>
        <time>2018-04-20T08:48:08.000Z</time>
      </trkpt>
      <trkpt lat="44.51779" lon="6.906">
        <ele>1899.66</ele>
        <time>2018-04-20T08:48:36.000Z</time>
      </trkpt>
      <trkpt lat="44.51741" lon="6.90601">
        <ele>1891.91</ele>
        <time>2018-04-20T08:49:24.000Z</time>
      </trkpt>
      <trkpt lat="44.51709" lon="6.90616">
        <ele>1869.71</ele>
        <time>2018-04-20T08:49:32.000Z</time>
      </trkpt>
      <trkpt lat="44.51688" lon="6.90632">
        <ele>1860.07</ele>
        <time>2018-04-20T08:49:36.000Z</time>
      </trkpt>
      <trkpt lat="44.51666" lon="6.90652">
        <ele>1856.2</ele>
        <time>2018-04-20T08:49:40.000Z</time>
      </trkpt>
      <trkpt lat="44.51645" lon="6.90662">
        <ele>1855.35</ele>
        <time>2018-04-20T08:49:44.000Z</time>
      </trkpt>
      <trkpt lat="44.51619" lon="6.90668">
        <ele>1856.86</ele>
        <time>2018-04-20T08:49:48.000Z</time>
      </trkpt>
      <trkpt lat="44.51594" lon="6.90672">
        <ele>1858.51</ele>
        <time>2018-04-20T08:49:52.000Z</time>
      </trkpt>
      <trkpt lat="44.51571" lon="6.9066">
        <ele>1857.82</ele>
        <time>2018-04-20T08:50:00.000Z</time>
      </trkpt>
      <trkpt lat="44.51529" lon="6.90678">
        <ele>1857.41</ele>
        <time>2018-04-20T08:50:08.000Z</time>
      </trkpt>
      <trkpt lat="44.51507" lon="6.90684">
        <ele>1856.17</ele>
        <time>2018-04-20T08:50:12.000Z</time>
      </trkpt>
      <trkpt lat="44.51489" lon="6.9068">
        <ele>1854.93</ele>
        <time>2018-04-20T08:50:16.000Z</time>
      </trkpt>
      <trkpt lat="44.51457" lon="6.90684">
        <ele>1845.68</ele>
        <time>2018-04-20T08:50:24.000Z</time>
      </trkpt>
      <trkpt lat="44.51437" lon="6.90688">
        <ele>1838.97</ele>
        <time>2018-04-20T08:50:28.000Z</time>
      </trkpt>
      <trkpt lat="44.51426" lon="6.9071">
        <ele>1833.53</ele>
        <time>2018-04-20T08:50:36.000Z</time>
      </trkpt>
      <trkpt lat="44.51405" lon="6.90714">
        <ele>1828.87</ele>
        <time>2018-04-20T08:50:40.000Z</time>
      </trkpt>
      <trkpt lat="44.51382" lon="6.90711">
        <ele>1822.33</ele>
        <time>2018-04-20T08:50:44.000Z</time>
      </trkpt>
      <trkpt lat="44.51362" lon="6.90711">
        <ele>1814.9</ele>
        <time>2018-04-20T08:50:48.000Z</time>
      </trkpt>
      <trkpt lat="44.51339" lon="6.90721">
        <ele>1809.02</ele>
        <time>2018-04-20T08:50:52.000Z</time>
      </trkpt>
      <trkpt lat="44.5132" lon="6.90738">
        <ele>1804.79</ele>
        <time>2018-04-20T08:50:56.000Z</time>
      </trkpt>
      <trkpt lat="44.51298" lon="6.90735">
        <ele>1773.78</ele>
        <time>2018-04-20T08:51:40.000Z</time>
      </trkpt>
      <trkpt lat="44.51279" lon="6.90726">
        <ele>1759.32</ele>
        <time>2018-04-20T08:51:44.000Z</time>
      </trkpt>
      <trkpt lat="44.51243" lon="6.90732">
        <ele>1745.81</ele>
        <time>2018-04-20T08:51:52.000Z</time>
      </trkpt>
      <trkpt lat="44.5122" lon="6.90733">
        <ele>1736.97</ele>
        <time>2018-04-20T08:51:56.000Z</time>
      </trkpt>
      <trkpt lat="44.51194" lon="6.90737">
        <ele>1730.51</ele>
        <time>2018-04-20T08:52:00.000Z</time>
      </trkpt>
      <trkpt lat="44.51163" lon="6.90741">
        <ele>1724.39</ele>
        <time>2018-04-20T08:52:08.000Z</time>
      </trkpt>
      <trkpt lat="44.51144" lon="6.90739">
        <ele>1721.17</ele>
        <time>2018-04-20T08:52:12.000Z</time>
      </trkpt>
      <trkpt lat="44.51125" lon="6.90733">
        <ele>1718.26</ele>
        <time>2018-04-20T08:52:16.000Z</time>
      </trkpt>
      <trkpt lat="44.51098" lon="6.90728">
        <ele>1716.09</ele>
        <time>2018-04-20T08:52:24.000Z</time>
      </trkpt>
      <trkpt lat="44.51076" lon="6.90724">
        <ele>1718.23</ele>
        <time>2018-04-20T08:52:28.000Z</time>
      </trkpt>
      <trkpt lat="44.51049" lon="6.90717">
        <ele>1720.53</ele>
        <time>2018-04-20T08:52:32.000Z</time>
      </trkpt>
      <trkpt lat="44.51014" lon="6.90736">
        <ele>1720.35</ele>
        <time>2018-04-20T08:53:56.000Z</time>
      </trkpt>
      <trkpt lat="44.50993" lon="6.90745">
        <ele>1718.24</ele>
        <time>2018-04-20T08:54:00.000Z</time>
      </trkpt>
      <trkpt lat="44.5097" lon="6.90756">
        <ele>1717.43</ele>
        <time>2018-04-20T08:54:04.000Z</time>
      </trkpt>
      <trkpt lat="44.50947" lon="6.90763">
        <ele>1716.59</ele>
        <time>2018-04-20T08:54:08.000Z</time>
      </trkpt>
      <trkpt lat="44.50928" lon="6.90769">
        <ele>1714.24</ele>
        <time>2018-04-20T08:54:12.000Z</time>
      </trkpt>
      <trkpt lat="44.50898" lon="6.90776">
        <ele>1714.11</ele>
        <time>2018-04-20T08:54:16.000Z</time>
      </trkpt>
      <trkpt lat="44.50871" lon="6.90774">
        <ele>1711.65</ele>
        <time>2018-04-20T08:54:20.000Z</time>
      </trkpt>
      <trkpt lat="44.5085" lon="6.90779">
        <ele>1708.69</ele>
        <time>2018-04-20T08:54:24.000Z</time>
      </trkpt>
      <trkpt lat="44.5083" lon="6.90804">
        <ele>1705.96</ele>
        <time>2018-04-20T08:54:32.000Z</time>
      </trkpt>
      <trkpt lat="44.50814" lon="6.90821">
        <ele>1704.94</ele>
        <time>2018-04-20T08:54:40.000Z</time>
      </trkpt>
      <trkpt lat="44.50795" lon="6.90839">
        <ele>1703.27</ele>
        <time>2018-04-20T08:54:48.000Z</time>
      </trkpt>
      <trkpt lat="44.50779" lon="6.90857">
        <ele>1701.05</ele>
        <time>2018-04-20T08:54:56.000Z</time>
      </trkpt>
      <trkpt lat="44.50761" lon="6.90878">
        <ele>1698.5</ele>
        <time>2018-04-20T08:55:04.000Z</time>
      </trkpt>
      <trkpt lat="44.50737" lon="6.90899">
        <ele>1695.36</ele>
        <time>2018-04-20T08:55:12.000Z</time>
      </trkpt>
      <trkpt lat="44.50715" lon="6.90911">
        <ele>1692.87</ele>
        <time>2018-04-20T08:55:20.000Z</time>
      </trkpt>
      <trkpt lat="44.50698" lon="6.90929">
        <ele>1689.3</ele>
        <time>2018-04-20T08:55:32.000Z</time>
      </trkpt>
      <trkpt lat="44.50684" lon="6.90952">
        <ele>1685.66</ele>
        <time>2018-04-20T08:55:52.000Z</time>
      </trkpt>
      <trkpt lat="44.5067" lon="6.9097">
        <ele>1683.85</ele>
        <time>2018-04-20T08:56:12.000Z</time>
      </trkpt>
      <trkpt lat="44.50669" lon="6.91">
        <ele>1678.97</ele>
        <time>2018-04-20T08:57:28.000Z</time>
      </trkpt>
      <trkpt lat="44.50666" lon="6.91032">
        <ele>1674.01</ele>
        <time>2018-04-20T08:57:40.000Z</time>
      </trkpt>
      <trkpt lat="44.50656" lon="6.91054">
        <ele>1670.23</ele>
        <time>2018-04-20T08:57:52.000Z</time>
      </trkpt>
      <trkpt lat="44.50647" lon="6.91076">
        <ele>1668.43</ele>
        <time>2018-04-20T08:58:04.000Z</time>
      </trkpt>
      <trkpt lat="44.50636" lon="6.91099">
        <ele>1667.93</ele>
        <time>2018-04-20T08:58:16.000Z</time>
      </trkpt>
      <trkpt lat="44.50616" lon="6.91122">
        <ele>1669.77</ele>
        <time>2018-04-20T08:58:48.000Z</time>
      </trkpt>
      <trkpt lat="44.50601" lon="6.91138">
        <ele>1674.79</ele>
        <time>2018-04-20T08:59:12.000Z</time>
      </trkpt>
      <trkpt lat="44.50589" lon="6.91159">
        <ele>1679.37</ele>
        <time>2018-04-20T08:59:32.000Z</time>
      </trkpt>
      <trkpt lat="44.50574" lon="6.9118">
        <ele>1683.66</ele>
        <time>2018-04-20T08:59:56.000Z</time>
      </trkpt>
      <trkpt lat="44.50558" lon="6.91205">
        <ele>1685.35</ele>
        <time>2018-04-20T09:00:44.000Z</time>
      </trkpt>
      <trkpt lat="44.50543" lon="6.91229">
        <ele>1685.09</ele>
        <time>2018-04-20T09:00:56.000Z</time>
      </trkpt>
      <trkpt lat="44.5053" lon="6.91254">
        <ele>1684.92</ele>
        <time>2018-04-20T09:01:04.000Z</time>
      </trkpt>
      <trkpt lat="44.50516" lon="6.91291">
        <ele>1684.22</ele>
        <time>2018-04-20T09:01:12.000Z</time>
      </trkpt>
      <trkpt lat="44.50498" lon="6.9132">
        <ele>1677.2</ele>
        <time>2018-04-20T09:03:44.000Z</time>
      </trkpt>
      <trkpt lat="44.50485" lon="6.91343">
        <ele>1672.08</ele>
        <time>2018-04-20T09:03:48.000Z</time>
      </trkpt>
      <trkpt lat="44.5047" lon="6.91369">
        <ele>1668.75</ele>
        <time>2018-04-20T09:03:52.000Z</time>
      </trkpt>
      <trkpt lat="44.50454" lon="6.91396">
        <ele>1668.43</ele>
        <time>2018-04-20T09:03:56.000Z</time>
      </trkpt>
      <trkpt lat="44.5044" lon="6.91415">
        <ele>1669.33</ele>
        <time>2018-04-20T09:04:00.000Z</time>
      </trkpt>
      <trkpt lat="44.50418" lon="6.91432">
        <ele>1670.57</ele>
        <time>2018-04-20T09:04:08.000Z</time>
      </trkpt>
      <trkpt lat="44.50391" lon="6.91437">
        <ele>1669.12</ele>
        <time>2018-04-20T09:04:20.000Z</time>
      </trkpt>
      <trkpt lat="44.50372" lon="6.9144">
        <ele>1667.41</ele>
        <time>2018-04-20T09:04:28.000Z</time>
      </trkpt>
      <trkpt lat="44.50345" lon="6.91466">
        <ele>1661.44</ele>
        <time>2018-04-20T09:04:36.000Z</time>
      </trkpt>
      <trkpt lat="44.50318" lon="6.91492">
        <ele>1658.83</ele>
        <time>2018-04-20T09:04:44.000Z</time>
      </trkpt>
      <trkpt lat="44.50299" lon="6.91512">
        <ele>1657.31</ele>
        <time>2018-04-20T09:05:00.000Z</time>
      </trkpt>
      <trkpt lat="44.50286" lon="6.91531">
        <ele>1656.61</ele>
        <time>2018-04-20T09:05:08.000Z</time>
      </trkpt>
      <trkpt lat="44.50262" lon="6.91555">
        <ele>1651.22</ele>
        <time>2018-04-20T09:06:52.000Z</time>
      </trkpt>
      <trkpt lat="44.5024" lon="6.91583">
        <ele>1650.17</ele>
        <time>2018-04-20T09:07:00.000Z</time>
      </trkpt>
      <trkpt lat="44.50222" lon="6.91614">
        <ele>1648.85</ele>
        <time>2018-04-20T09:07:08.000Z</time>
      </trkpt>
      <trkpt lat="44.50201" lon="6.91633">
        <ele>1648.18</ele>
        <time>2018-04-20T09:07:16.000Z</time>
      </trkpt>
      <trkpt lat="44.50181" lon="6.91655">
        <ele>1647.45</ele>
        <time>2018-04-20T09:07:24.000Z</time>
      </trkpt>
      <trkpt lat="44.50166" lon="6.91674">
        <ele>1646.62</ele>
        <time>2018-04-20T09:07:32.000Z</time>
      </trkpt>
      <trkpt lat="44.50145" lon="6.9169">
        <ele>1645.79</ele>
        <time>2018-04-20T09:07:40.000Z</time>
      </trkpt>
      <trkpt lat="44.50123" lon="6.91703">
        <ele>1645.04</ele>
        <time>2018-04-20T09:07:48.000Z</time>
      </trkpt>
      <trkpt lat="44.50103" lon="6.91714">
        <ele>1643.97</ele>
        <time>2018-04-20T09:07:56.000Z</time>
      </trkpt>
      <trkpt lat="44.5008" lon="6.91731">
        <ele>1642.8</ele>
        <time>2018-04-20T09:08:04.000Z</time>
      </trkpt>
      <trkpt lat="44.50062" lon="6.91745">
        <ele>1641.69</ele>
        <time>2018-04-20T09:08:12.000Z</time>
      </trkpt>
      <trkpt lat="44.50041" lon="6.91772">
        <ele>1640.99</ele>
        <time>2018-04-20T09:08:20.000Z</time>
      </trkpt>
      <trkpt lat="44.5002" lon="6.91799">
        <ele>1640.83</ele>
        <time>2018-04-20T09:08:28.000Z</time>
      </trkpt>
      <trkpt lat="44.50004" lon="6.91821">
        <ele>1641.34</ele>
        <time>2018-04-20T09:08:36.000Z</time>
      </trkpt>
      <trkpt lat="44.49989" lon="6.91842">
        <ele>1641.75</ele>
        <time>2018-04-20T09:08:44.000Z</time>
      </trkpt>
      <trkpt lat="44.49974" lon="6.91864">
        <ele>1642.07</ele>
        <time>2018-04-20T09:08:51.000Z</time>
      </trkpt>
      <trkpt lat="44.49961" lon="6.91885">
        <ele>1641.98</ele>
        <time>2018-04-20T09:08:59.000Z</time>
      </trkpt>
      <trkpt lat="44.49945" lon="6.91909">
        <ele>1640.8</ele>
        <time>2018-04-20T09:09:11.000Z</time>
      </trkpt>
      <trkpt lat="44.49923" lon="6.91926">
        <ele>1638.83</ele>
        <time>2018-04-20T09:09:23.000Z</time>
      </trkpt>
      <trkpt lat="44.49896" lon="6.91933">
        <ele>1637.66</ele>
        <time>2018-04-20T09:09:35.000Z</time>
      </trkpt>
      <trkpt lat="44.49876" lon="6.91931">
        <ele>1634.7</ele>
        <time>2018-04-20T09:11:11.000Z</time>
      </trkpt>
      <trkpt lat="44.49854" lon="6.91933">
        <ele>1633.97</ele>
        <time>2018-04-20T09:11:31.000Z</time>
      </trkpt>
      <trkpt lat="44.49837" lon="6.91943">
        <ele>1634.19</ele>
        <time>2018-04-20T09:11:43.000Z</time>
      </trkpt>
      <trkpt lat="44.49817" lon="6.91952">
        <ele>1634.43</ele>
        <time>2018-04-20T09:11:59.000Z</time>
      </trkpt>
      <trkpt lat="44.49799" lon="6.91945">
        <ele>1634.33</ele>
        <time>2018-04-20T09:12:19.000Z</time>
      </trkpt>
      <trkpt lat="44.49781" lon="6.91937">
        <ele>1634.84</ele>
        <time>2018-04-20T09:12:35.000Z</time>
      </trkpt>
      <trkpt lat="44.49762" lon="6.91931">
        <ele>1637.33</ele>
        <time>2018-04-20T09:13:03.000Z</time>
      </trkpt>
      <trkpt lat="44.49743" lon="6.91924">
        <ele>1639.16</ele>
        <time>2018-04-20T09:13:19.000Z</time>
      </trkpt>
      <trkpt lat="44.49727" lon="6.91911">
        <ele>1640.74</ele>
        <time>2018-04-20T09:13:43.000Z</time>
      </trkpt>
    </trkseg>
  </trk>
</gpx>